Observation data for Amarillo 9 North Northeast on 05/24/2019      Previous  Date  Next       Current Mesonet Observations  Soil Data  Daily Summary Page  Observations in Plain Language
KAM2 240500Z 35004KT 13/12 A2997 RMK A01 T01280124  RH  097%=      5-min Rain = 0
KAM2 240501Z 00005KT 13/12 A2997 RMK A01 T01280124  RH  097%=      5-min Rain = 0
KAM2 240502Z 01005KT 13/12 A2997 RMK A01 T01280124  RH  097%=      5-min Rain = 0
KAM2 240503Z 00005KT 13/12 A2997 RMK A01 T01280124  RH  097%=      5-min Rain = 0
KAM2 240504Z 01004KT 13/12 A2997 RMK A01 T01280124  RH  097%=      5-min Rain = 0
KAM2 240505Z 01004KT 13/12 A2997 RMK A01 T01280124  RH  097%=      5-min Rain = 0
KAM2 240506Z 02004KT 13/12 A2997 RMK A01 T01280124  RH  097%=      5-min Rain = 0
KAM2 240507Z 03004KT 13/13 A2997 RMK A01 T01280125  RH  098%=      5-min Rain = 0
KAM2 240508Z 03004KT 13/12 A2997 RMK A01 T01280124  RH  098%=      5-min Rain = 0
KAM2 240509Z 02003KT 13/13 A2997 RMK A01 T01280125  RH  098%=      5-min Rain = 0
KAM2 240510Z 36003KT 13/13 A2998 RMK A01 T01280125  RH  098%=      5-min Rain = 0
KAM2 240511Z 00002KT 13/13 A2997 RMK A01 T01280125  RH  098%=      5-min Rain = 0
KAM2 240512Z 01003KT 13/13 A2997 RMK A01 T01280125  RH  098%=      5-min Rain = 0
KAM2 240513Z 02004KT 13/13 A2996 RMK A01 T01280125  RH  098%=      5-min Rain = 0
KAM2 240514Z 02006KT 13/13 A2995 RMK A01 T01280125  RH  098%=      5-min Rain = 0
KAM2 240515Z 03007KT 13/13 A2994 RMK A01 T01280125  RH  098%=      5-min Rain = 0
KAM2 240516Z 03008KT 13/12 A2993 RMK A01 T01280124  RH  098%=      5-min Rain = 0
KAM2 240517Z 02007KT 13/12 A2992 RMK A01 T01280124  RH  098%=      5-min Rain = 0
KAM2 240518Z 02007KT 13/13 A2992 RMK A01 T01280125  RH  098%=      5-min Rain = 0
KAM2 240519Z 02005KT 13/12 A2993 RMK A01 T01270124  RH  098%=      5-min Rain = 0
KAM2 240520Z 36005KT 13/12 A2994 RMK A01 T01270124  RH  098%=      5-min Rain = 0
KAM2 240521Z 36004KT 13/12 A2995 RMK A01 T01270124  RH  098%=      5-min Rain = 0
KAM2 240522Z 35004KT 13/12 A2995 RMK A01 T01270124  RH  098%=      5-min Rain = 0
KAM2 240523Z 33002KT 13/12 A2996 RMK A01 T01270124  RH  098%=      5-min Rain = 0
KAM2 240524Z 31003KT 13/12 A2996 RMK A01 T01260123  RH  098%=      5-min Rain = 0
KAM2 240525Z 32002KT 13/12 A2996 RMK A01 T01260123  RH  098%=      5-min Rain = 0
KAM2 240526Z 31003KT 13/12 A2996 RMK A01 T01260123  RH  098%=      5-min Rain = 0
KAM2 240527Z 29003KT 13/12 A2997 RMK A01 T01260123  RH  098%=      5-min Rain = 0
KAM2 240528Z 29002KT 13/12 A2997 RMK A01 T01260123  RH  098%=      5-min Rain = 0
KAM2 240529Z 33001KT 13/12 A2997 RMK A01 T01270124  RH  098%=      5-min Rain = 0
KAM2 240530Z 33000KT 13/12 A2997 RMK A01 T01270124  RH  098%=      5-min Rain = 0
KAM2 240531Z 09001KT 13/12 A2997 RMK A01 T01270124  RH  098%=      5-min Rain = 0
KAM2 240532Z 07002KT 13/12 A2997 RMK A01 T01270124  RH  098%=      5-min Rain = 0
KAM2 240533Z 10002KT 13/12 A2997 RMK A01 T01270124  RH  098%=      5-min Rain = 0
KAM2 240534Z 09002KT 13/12 A2997 RMK A01 T01270124  RH  098%=      5-min Rain = 0
KAM2 240535Z 08001KT 13/12 A2996 RMK A01 T01270124  RH  098%=      5-min Rain = 0
KAM2 240536Z 07001KT 13/12 A2996 RMK A01 T01270124  RH  098%=      5-min Rain = 0
KAM2 240537Z 07000KT 13/12 A2996 RMK A01 T01270124  RH  098%=      5-min Rain = 0
KAM2 240538Z 07001KT 13/12 A2996 RMK A01 T01270124  RH  098%=      5-min Rain = 0
KAM2 240539Z 02000KT 13/12 A2996 RMK A01 T01260123  RH  098%=      5-min Rain = 0
KAM2 240540Z 02002KT 13/12 A2996 RMK A01 T01270124  RH  098%=      5-min Rain = 0
KAM2 240541Z 05001KT 13/12 A2996 RMK A01 T01260124  RH  098%=      5-min Rain = 0
KAM2 240542Z 08001KT 13/12 A2996 RMK A01 T01270124  RH  098%=      5-min Rain = 0
KAM2 240543Z 10001KT 13/12 A2996 RMK A01 T01270124  RH  098%=      5-min Rain = 0
KAM2 240544Z 08001KT 13/12 A2995 RMK A01 T01270123  RH  098%=      5-min Rain = 0
KAM2 240545Z 06002KT 13/12 A2994 RMK A01 T01270123  RH  098%=      5-min Rain = 0
KAM2 240546Z 03002KT 13/12 A2994 RMK A01 T01270124  RH  098%=      5-min Rain = 0
KAM2 240547Z 01002KT 13/12 A2993 RMK A01 T01270124  RH  098%=      5-min Rain = 0
KAM2 240548Z 35002KT 13/12 A2994 RMK A01 T01260124  RH  098%=      5-min Rain = 0
KAM2 240549Z 34002KT 13/12 A2994 RMK A01 T01260123  RH  098%=      5-min Rain = 0
KAM2 240550Z 31002KT 13/12 A2995 RMK A01 T01260123  RH  098%=      5-min Rain = 0
KAM2 240551Z 31003KT 13/12 A2995 RMK A01 T01260123  RH  098%=      5-min Rain = 0
KAM2 240552Z 31004KT 13/12 A2995 RMK A01 T01260123  RH  098%=      5-min Rain = 0
KAM2 240553Z 31004KT 13/12 A2995 RMK A01 T01260124  RH  098%=      5-min Rain = 0
KAM2 240554Z 31003KT 13/12 A2995 RMK A01 T01260123  RH  098%=      5-min Rain = 0
KAM2 240555Z 32001KT 13/12 A2995 RMK A01 T01260123  RH  098%=      5-min Rain = 0
KAM2 240556Z 32000KT 13/12 A2995 RMK A01 T01260123  RH  098%=      5-min Rain = 0
KAM2 240557Z 22000KT 13/12 A2995 RMK A01 T01260123  RH  098%=      5-min Rain = 0
KAM2 240558Z 22001KT 13/12 A2995 RMK A01 T01260123  RH  098%=      5-min Rain = 0
KAM2 240559Z 22001KT 13/12 A2996 RMK A01 T01260123  RH  098%=      5-min Rain = 0
KAM2 240600Z 21001KT 13/12 A2996 RMK A01 T01260123  RH  098%=      5-min Rain = 0
KAM2 240601Z 19000KT 13/12 A2995 RMK A01 T01260123  RH  098%=      5-min Rain = 0
KAM2 240602Z 00000KT 13/12 A2995 RMK A01 T01260123  RH  098%=      5-min Rain = 0
KAM2 240603Z 00000KT 13/12 A2995 RMK A01 T01260123  RH  098%=      5-min Rain = 0
KAM2 240604Z 00000KT 13/12 A2994 RMK A01 T01260123  RH  098%=      5-min Rain = 0
KAM2 240605Z 00000KT 13/12 A2994 RMK A01 T01260123  RH  098%=      5-min Rain = 0
KAM2 240606Z 00000KT 13/12 A2994 RMK A01 T01260123  RH  098%=      5-min Rain = 0
KAM2 240607Z 34000KT 13/12 A2993 RMK A01 T01260123  RH  098%=      5-min Rain = 0
KAM2 240608Z 33001KT 13/12 A2993 RMK A01 T01260123  RH  098%=      5-min Rain = 0
KAM2 240609Z 32001KT 13/12 A2993 RMK A01 T01260123  RH  098%=      5-min Rain = 0
KAM2 240610Z 30001KT 13/12 A2993 RMK A01 T01260123  RH  098%=      5-min Rain = 0
KAM2 240611Z 29001KT 13/12 A2993 RMK A01 T01260123  RH  098%=      5-min Rain = 0
KAM2 240612Z 29001KT 13/12 A2993 RMK A01 T01260123  RH  098%=      5-min Rain = 0
KAM2 240613Z 30001KT 13/12 A2993 RMK A01 T01260123  RH  098%=      5-min Rain = 0
KAM2 240614Z 30000KT 13/12 A2992 RMK A01 T01260123  RH  098%=      5-min Rain = 0
KAM2 240615Z 00000KT 13/12 A2992 RMK A01 T01260123  RH  098%=      5-min Rain = 0
KAM2 240616Z 10001KT 13/12 A2992 RMK A01 T01260123  RH  098%=      5-min Rain = 0
KAM2 240617Z 02001KT 13/12 A2992 RMK A01 T01260123  RH  098%=      5-min Rain = 0
KAM2 240618Z 35001KT 13/12 A2992 RMK A01 T01260123  RH  098%=      5-min Rain = 0
KAM2 240619Z 31001KT 13/12 A2992 RMK A01 T01260123  RH  098%=      5-min Rain = 0
KAM2 240620Z 30003KT 13/12 A2992 RMK A01 T01260123  RH  098%=      5-min Rain = 0
KAM2 240621Z 30002KT 13/12 A2993 RMK A01 T01250123  RH  098%=      5-min Rain = 0
KAM2 240622Z 29001KT 13/12 A2993 RMK A01 T01250123  RH  099%=      5-min Rain = 0
KAM2 240623Z 00000KT 13/12 A2993 RMK A01 T01250123  RH  099%=      5-min Rain = 0
KAM2 240624Z 22001KT 13/12 A2993 RMK A01 T01250123  RH  099%=      5-min Rain = 0
KAM2 240625Z 20001KT 13/12 A2993 RMK A01 T01250123  RH  099%=      5-min Rain = 0
KAM2 240626Z 20001KT 13/12 A2993 RMK A01 T01260124  RH  099%=      5-min Rain = 0
KAM2 240627Z 21001KT 13/12 A2993 RMK A01 T01260124  RH  099%=      5-min Rain = 0
KAM2 240628Z 22002KT 13/12 A2993 RMK A01 T01260124  RH  099%=      5-min Rain = 0
KAM2 240629Z 23002KT 13/12 A2993 RMK A01 T01260124  RH  099%=      5-min Rain = 0
KAM2 240630Z 23001KT 13/12 A2994 RMK A01 T01260124  RH  099%=      5-min Rain = 0
KAM2 240631Z 22002KT 13/12 A2994 RMK A01 T01260124  RH  099%=      5-min Rain = 0
KAM2 240632Z 23002KT 13/12 A2994 RMK A01 T01260124  RH  099%=      5-min Rain = 0
KAM2 240633Z 25004KT 13/12 A2994 RMK A01 T01260124  RH  099%=      5-min Rain = 0
KAM2 240634Z 26004KT 13/12 A2993 RMK A01 T01260124  RH  099%=      5-min Rain = 0
KAM2 240635Z 28004KT 13/12 A2993 RMK A01 T01260124  RH  099%=      5-min Rain = 0
KAM2 240636Z 27004KT 13/12 A2993 RMK A01 T01260124  RH  099%=      5-min Rain = 0
KAM2 240637Z 28002KT 13/12 A2993 RMK A01 T01260124  RH  099%=      5-min Rain = 0
KAM2 240638Z 25002KT 13/12 A2993 RMK A01 T01260124  RH  099%=      5-min Rain = 0
KAM2 240639Z 23002KT 13/12 A2994 RMK A01 T01260124  RH  099%=      5-min Rain = 0
KAM2 240640Z 21002KT 13/13 A2994 RMK A01 T01270125  RH  099%=      5-min Rain = 0
KAM2 240641Z 26002KT 13/13 A2994 RMK A01 T01270125  RH  099%=      5-min Rain = 0
KAM2 240642Z 26003KT 13/13 A2994 RMK A01 T01270125  RH  099%=      5-min Rain = 0
KAM2 240643Z 26003KT 13/13 A2994 RMK A01 T01270125  RH  099%=      5-min Rain = 0
KAM2 240644Z 25002KT 13/13 A2994 RMK A01 T01270125  RH  098%=      5-min Rain = 0
KAM2 240645Z 26003KT 13/13 A2994 RMK A01 T01270125  RH  098%=      5-min Rain = 0
KAM2 240646Z 25003KT 13/13 A2995 RMK A01 T01270125  RH  098%=      5-min Rain = 0
KAM2 240647Z 25004KT 13/12 A2995 RMK A01 T01270124  RH  098%=      5-min Rain = 0
KAM2 240648Z 26004KT 13/12 A2995 RMK A01 T01270124  RH  098%=      5-min Rain = 0
KAM2 240649Z 26004KT 13/12 A2995 RMK A01 T01260123  RH  098%=      5-min Rain = 0
KAM2 240650Z 26003KT 13/12 A2995 RMK A01 T01260123  RH  098%=      5-min Rain = 0
KAM2 240651Z 26002KT 13/12 A2995 RMK A01 T01260123  RH  098%=      5-min Rain = 0
KAM2 240652Z 24002KT 13/12 A2995 RMK A01 T01260123  RH  098%=      5-min Rain = 0
KAM2 240653Z 25002KT 13/12 A2996 RMK A01 T01260123  RH  098%=      5-min Rain = 0
KAM2 240654Z 24002KT 13/12 A2996 RMK A01 T01260123  RH  098%=      5-min Rain = 0
KAM2 240655Z 24003KT 13/12 A2996 RMK A01 T01260123  RH  098%=      5-min Rain = 0
KAM2 240656Z 23002KT 13/12 A2996 RMK A01 T01270124  RH  098%=      5-min Rain = 0
KAM2 240657Z 23001KT 13/12 A2996 RMK A01 T01270123  RH  098%=      5-min Rain = 0
KAM2 240658Z 24000KT 13/12 A2996 RMK A01 T01270124  RH  098%=      5-min Rain = 0
KAM2 240659Z 24000KT 13/12 A2996 RMK A01 T01260123  RH  098%=      5-min Rain = 0
KAM2 240700Z 00000KT 13/12 A2995 RMK A01 T01270123  RH  098%=      5-min Rain = 0
KAM2 240701Z 00000KT 13/12 A2995 RMK A01 T01270123  RH  098%=      5-min Rain = 0
KAM2 240702Z 31001KT 13/12 A2995 RMK A01 T01270123  RH  098%=      5-min Rain = 0
KAM2 240703Z 33002KT 13/12 A2995 RMK A01 T01260123  RH  098%=      5-min Rain = 0
KAM2 240704Z 34002KT 13/12 A2995 RMK A01 T01260123  RH  098%=      5-min Rain = 0
KAM2 240705Z 34003KT 13/12 A2995 RMK A01 T01260123  RH  098%=      5-min Rain = 0
KAM2 240706Z 34003KT 13/12 A2995 RMK A01 T01260123  RH  098%=      5-min Rain = 0
KAM2 240707Z 34004KT 13/12 A2995 RMK A01 T01260123  RH  098%=      5-min Rain = 0
KAM2 240708Z 34004KT 13/12 A2995 RMK A01 T01260123  RH  098%=      5-min Rain = 0
KAM2 240709Z 34005KT 13/12 A2995 RMK A01 T01260123  RH  098%=      5-min Rain = 0
KAM2 240710Z 34005KT 13/12 A2996 RMK A01 T01260123  RH  098%=      5-min Rain = 0
KAM2 240711Z 35006KT 13/12 A2996 RMK A01 T01270124  RH  098%=      5-min Rain = 0
KAM2 240712Z 35007KT 13/13 A2996 RMK A01 T01270125  RH  098%=      5-min Rain = 0
KAM2 240713Z 34007KT 13/13 A2996 RMK A01 T01270125  RH  099%=      5-min Rain = 0
KAM2 240714Z 34008KT 13/13 A2996 RMK A01 T01280126  RH  099%=      5-min Rain = 0
KAM2 240715Z 34008KT 13/13 A2996 RMK A01 T01280126  RH  099%=      5-min Rain = 0
KAM2 240716Z 34007KT 13/13 A2995 RMK A01 T01280126  RH  099%=      5-min Rain = 0
KAM2 240717Z 34006KT 13/13 A2995 RMK A01 T01280127  RH  099%=      5-min Rain = 0
KAM2 240718Z 36005KT 13/13 A2995 RMK A01 T01280126  RH  099%=      5-min Rain = 0
KAM2 240719Z 00006KT 13/13 A2995 RMK A01 T01280126  RH  099%=      5-min Rain = 0
KAM2 240720Z 00008KT 13/13 A2995 RMK A01 T01280126  RH  099%=      5-min Rain = 0
KAM2 240721Z 36009KT 13/13 A2995 RMK A01 T01280126  RH  099%=      5-min Rain = 0
KAM2 240722Z 36008KT 13/13 A2995 RMK A01 T01270125  RH  099%=      5-min Rain = 0
KAM2 240723Z 00009KT 13/13 A2995 RMK A01 T01270126  RH  099%=      5-min Rain = 0
KAM2 240724Z 01010KT 13/13 A2995 RMK A01 T01270125  RH  099%=      5-min Rain = 0
KAM2 240725Z 00010KT 13/13 A2996 RMK A01 T01260125  RH  099%=      5-min Rain = 0
KAM2 240726Z 00009KT 13/12 A2996 RMK A01 T01260124  RH  099%=      5-min Rain = 0
KAM2 240727Z 00009KT 13/12 A2996 RMK A01 T01260124  RH  099%=      5-min Rain = 0
KAM2 240728Z 36008KT 13/13 A2996 RMK A01 T01260125  RH  099%=      5-min Rain = 0
KAM2 240729Z 36009KT 13/13 A2995 RMK A01 T01260125  RH  099%=      5-min Rain = 0
KAM2 240730Z 01009KT 13/13 A2995 RMK A01 T01260125  RH  099%=      5-min Rain = 0
KAM2 240731Z 01009KT 13/12 A2995 RMK A01 T01250124  RH  099%=      5-min Rain = 0
KAM2 240732Z 01008KT 13/12 A2995 RMK A01 T01250124  RH  099%=      5-min Rain = 0
KAM2 240733Z 01010KT 13/12 A2995 RMK A01 T01250124  RH  099%=      5-min Rain = 0
KAM2 240734Z 00009KT 13/12 A2995 RMK A01 T01250124  RH  099%=      5-min Rain = 0
KAM2 240735Z 36009KT 13/12 A2995 RMK A01 T01250124  RH  099%=      5-min Rain = 0
KAM2 240736Z 36009KT 13/12 A2995 RMK A01 T01250123  RH  099%=      5-min Rain = 0
KAM2 240737Z 00008KT 13/12 A2995 RMK A01 T01250123  RH  099%=      5-min Rain = 0
KAM2 240738Z 36008KT 13/12 A2994 RMK A01 T01250123  RH  099%=      5-min Rain = 0
KAM2 240739Z 00007KT 13/12 A2994 RMK A01 T01250123  RH  099%=      5-min Rain = 0
KAM2 240740Z 36008KT 13/12 A2994 RMK A01 T01250123  RH  099%=      5-min Rain = 0
KAM2 240741Z 36007KT 12/12 A2993 RMK A01 T01240123  RH  099%=      5-min Rain = 0
KAM2 240742Z 36008KT 12/12 A2993 RMK A01 T01240123  RH  099%=      5-min Rain = 0
KAM2 240743Z 36010KT 12/12 A2993 RMK A01 T01240123  RH  099%=      5-min Rain = 0
KAM2 240744Z 36010KT 12/12 A2992 RMK A01 T01240122  RH  099%=      5-min Rain = 0
KAM2 240745Z 00010KT 12/12 A2992 RMK A01 T01230122  RH  099%=      5-min Rain = 0
KAM2 240746Z 36008KT 12/12 A2993 RMK A01 T01230121  RH  099%=      5-min Rain = 0
KAM2 240747Z 35010KT 12/12 A2993 RMK A01 T01230121  RH  099%=      5-min Rain = 0
KAM2 240748Z 00010KT 12/12 A2994 RMK A01 T01230121  RH  099%=      5-min Rain = 0
KAM2 240749Z 35010KT 12/12 A2994 RMK A01 T01230122  RH  099%=      5-min Rain = 0
KAM2 240750Z 00010KT 12/12 A2994 RMK A01 T01230121  RH  099%=      5-min Rain = 0
KAM2 240751Z 00011KT 12/12 A2994 RMK A01 T01230121  RH  099%=      5-min Rain = 0
KAM2 240752Z 00009KT 12/12 A2995 RMK A01 T01230121  RH  099%=      5-min Rain = 0
KAM2 240753Z 00007KT 12/12 A2995 RMK A01 T01230121  RH  099%=      5-min Rain = 0
KAM2 240754Z 36008KT 12/12 A2995 RMK A01 T01230121  RH  099%=      5-min Rain = 0
KAM2 240755Z 35008KT 12/12 A2995 RMK A01 T01230122  RH  099%=      5-min Rain = 0
KAM2 240756Z 36009KT 12/12 A2995 RMK A01 T01230122  RH  099%=      5-min Rain = 0
KAM2 240757Z 36007KT 12/12 A2995 RMK A01 T01230122  RH  099%=      5-min Rain = 0
KAM2 240758Z 35007KT 12/12 A2995 RMK A01 T01240122  RH  099%=      5-min Rain = 0
KAM2 240759Z 00007KT 12/12 A2996 RMK A01 T01230122  RH  099%=      5-min Rain = 0
KAM2 240800Z 00006KT 12/12 A2996 RMK A01 T01230122  RH  099%=      5-min Rain = 0
KAM2 240801Z 01005KT 12/12 A2996 RMK A01 T01230121  RH  099%=      5-min Rain = 0
KAM2 240802Z 01005KT 12/12 A2997 RMK A01 T01230122  RH  099%=      5-min Rain = 0
KAM2 240803Z 02005KT 12/12 A2997 RMK A01 T01230122  RH  099%=      5-min Rain = 0
KAM2 240804Z 02009KT 12/12 A2997 RMK A01 T01230122  RH  099%=      5-min Rain = 0
KAM2 240805Z 02008KT 12/12 A2997 RMK A01 T01230121  RH  099%=      5-min Rain = 0
KAM2 240811Z 01005KT 12/12 A2997 RMK A01 T01220120  RH  098%=      5-min Rain = 0
KAM2 240812Z 02005KT 12/12 A2997 RMK A01 T01230120  RH  098%=      5-min Rain = 0
KAM2 240813Z 02006KT 12/12 A2997 RMK A01 T01220120  RH  098%=      5-min Rain = 0
KAM2 240814Z 01006KT 12/12 A2997 RMK A01 T01230120  RH  098%=      5-min Rain = 0
KAM2 240815Z 01006KT 12/12 A2997 RMK A01 T01220120  RH  098%=      5-min Rain = 0
KAM2 240816Z 02008KT 12/12 A2997 RMK A01 T01220120  RH  098%=      5-min Rain = 0
KAM2 240817Z 03007KT 12/12 A2997 RMK A01 T01230120  RH  098%=      5-min Rain = 0
KAM2 240818Z 02005KT 12/12 A2997 RMK A01 T01220120  RH  098%=      5-min Rain = 0
KAM2 240819Z 02005KT 12/12 A2998 RMK A01 T01230120  RH  098%=      5-min Rain = 0
KAM2 240820Z 03004KT 12/12 A2998 RMK A01 T01230120  RH  098%=      5-min Rain = 0
KAM2 240821Z 04004KT 12/12 A2998 RMK A01 T01220119  RH  098%=      5-min Rain = 0
KAM2 240822Z 04003KT 12/12 A2998 RMK A01 T01220119  RH  098%=      5-min Rain = 0
KAM2 240823Z 05004KT 12/12 A2998 RMK A01 T01220119  RH  098%=      5-min Rain = 0
KAM2 240824Z 03004KT 12/12 A2998 RMK A01 T01220119  RH  098%=      5-min Rain = 0
KAM2 240825Z 01006KT 12/12 A2998 RMK A01 T01220120  RH  098%=      5-min Rain = 0
KAM2 240826Z 02005KT 12/12 A2998 RMK A01 T01220119  RH  098%=      5-min Rain = 0
KAM2 240827Z 03005KT 12/12 A2998 RMK A01 T01210119  RH  098%=      5-min Rain = 0
KAM2 240828Z 04005KT 12/12 A2998 RMK A01 T01210118  RH  098%=      5-min Rain = 0
KAM2 240829Z 03004KT 12/12 A2998 RMK A01 T01210118  RH  098%=      5-min Rain = 0
KAM2 240830Z 01004KT 12/12 A2998 RMK A01 T01210119  RH  098%=      5-min Rain = 0
KAM2 240831Z 00006KT 12/12 A2998 RMK A01 T01210119  RH  098%=      5-min Rain = 0
KAM2 240832Z 01005KT 12/12 A2998 RMK A01 T01210119  RH  098%=      5-min Rain = 0
KAM2 240833Z 03005KT 12/12 A2998 RMK A01 T01210119  RH  098%=      5-min Rain = 0
KAM2 240834Z 02005KT 12/12 A2998 RMK A01 T01220119  RH  099%=      5-min Rain = 0
KAM2 240835Z 03005KT 12/12 A2998 RMK A01 T01220119  RH  099%=      5-min Rain = 0
KAM2 240836Z 03004KT 12/12 A2999 RMK A01 T01210119  RH  098%=      5-min Rain = 0
KAM2 240837Z 07003KT 12/12 A2999 RMK A01 T01220119  RH  099%=      5-min Rain = 0
KAM2 240838Z 08003KT 12/12 A2999 RMK A01 T01210119  RH  099%=      5-min Rain = 0
KAM2 240839Z 05002KT 12/12 A2999 RMK A01 T01210119  RH  099%=      5-min Rain = 0
KAM2 240840Z 04003KT 12/12 A2999 RMK A01 T01210119  RH  099%=      5-min Rain = 0
KAM2 240841Z 03003KT 12/12 A2999 RMK A01 T01210119  RH  099%=      5-min Rain = 0
KAM2 240842Z 04005KT 12/12 A2999 RMK A01 T01210119  RH  099%=      5-min Rain = 0
KAM2 240843Z 04005KT 12/12 A2999 RMK A01 T01210118  RH  098%=      5-min Rain = 0
KAM2 240844Z 04004KT 12/12 A2999 RMK A01 T01210118  RH  098%=      5-min Rain = 0
KAM2 240845Z 04003KT 12/12 A2999 RMK A01 T01210118  RH  098%=      5-min Rain = 0
KAM2 240846Z 04005KT 12/12 A2999 RMK A01 T01210119  RH  099%=      5-min Rain = 0
KAM2 240847Z 04006KT 12/12 A2998 RMK A01 T01200118  RH  099%=      5-min Rain = 0
KAM2 240848Z 03005KT 12/12 A2998 RMK A01 T01210118  RH  099%=      5-min Rain = 0
KAM2 240849Z 04005KT 12/12 A2999 RMK A01 T01210118  RH  099%=      5-min Rain = 0
KAM2 240850Z 04003KT 12/12 A2999 RMK A01 T01210118  RH  099%=      5-min Rain = 0
KAM2 240851Z 03003KT 12/12 A2999 RMK A01 T01210118  RH  099%=      5-min Rain = 0
KAM2 240852Z 02003KT 12/12 A2998 RMK A01 T01200118  RH  099%=      5-min Rain = 0
KAM2 240853Z 02003KT 12/12 A2998 RMK A01 T01210118  RH  098%=      5-min Rain = 0
KAM2 240854Z 01003KT 12/12 A2998 RMK A01 T01210118  RH  098%=      5-min Rain = 0
KAM2 240855Z 00004KT 12/12 A2998 RMK A01 T01210119  RH  099%=      5-min Rain = 0
KAM2 240856Z 35006KT 12/12 A2998 RMK A01 T01210119  RH  099%=      5-min Rain = 0
KAM2 240857Z 36007KT 12/12 A2998 RMK A01 T01210118  RH  099%=      5-min Rain = 0
KAM2 240858Z 36006KT 12/12 A2998 RMK A01 T01210119  RH  099%=      5-min Rain = 0
KAM2 240859Z 35006KT 12/12 A2997 RMK A01 T01200118  RH  099%=      5-min Rain = 0
KAM2 240900Z 35005KT 12/12 A2997 RMK A01 T01200118  RH  099%=      5-min Rain = 0
KAM2 240901Z 35005KT 12/12 A2997 RMK A01 T01200118  RH  099%=      5-min Rain = 0
KAM2 240902Z 35005KT 12/12 A2997 RMK A01 T01200118  RH  099%=      5-min Rain = 0
KAM2 240903Z 35005KT 12/12 A2998 RMK A01 T01200118  RH  099%=      5-min Rain = 0
KAM2 240904Z 35004KT 12/12 A2998 RMK A01 T01190118  RH  099%=      5-min Rain = 0
KAM2 240905Z 36006KT 12/12 A2997 RMK A01 T01190117  RH  099%=      5-min Rain = 0
KAM2 240906Z 00007KT 12/12 A2997 RMK A01 T01190117  RH  099%=      5-min Rain = 0
KAM2 240907Z 00007KT 12/12 A2997 RMK A01 T01180117  RH  099%=      5-min Rain = 0
KAM2 240908Z 35007KT 12/12 A2997 RMK A01 T01180116  RH  099%=      5-min Rain = 0
KAM2 240909Z 35007KT 12/12 A2997 RMK A01 T01180117  RH  099%=      5-min Rain = 0
KAM2 240910Z 35008KT 12/12 A2997 RMK A01 T01180117  RH  099%=      5-min Rain = 0
KAM2 240911Z 35008KT 12/12 A2997 RMK A01 T01180116  RH  099%=      5-min Rain = 0
KAM2 240912Z 36008KT 12/12 A2997 RMK A01 T01180116  RH  099%=      5-min Rain = 0
KAM2 240913Z 34006KT 12/12 A2997 RMK A01 T01170116  RH  099%=      5-min Rain = 0
KAM2 240914Z 36006KT 12/12 A2997 RMK A01 T01170116  RH  099%=      5-min Rain = 0
KAM2 240915Z 35007KT 12/12 A2997 RMK A01 T01170116  RH  099%=      5-min Rain = 0
KAM2 240916Z 35007KT 12/12 A2997 RMK A01 T01170115  RH  099%=      5-min Rain = 0
KAM2 240917Z 36007KT 12/12 A2997 RMK A01 T01160115  RH  099%=      5-min Rain = 0
KAM2 240918Z 00008KT 12/12 A2997 RMK A01 T01170115  RH  099%=      5-min Rain = 0
KAM2 240919Z 00008KT 12/12 A2997 RMK A01 T01170115  RH  099%=      5-min Rain = 0
KAM2 240920Z 36007KT 12/12 A2997 RMK A01 T01170116  RH  099%=      5-min Rain = 0
KAM2 240921Z 36007KT 12/12 A2997 RMK A01 T01160115  RH  099%=      5-min Rain = 0
KAM2 240922Z 00007KT 12/12 A2997 RMK A01 T01170116  RH  099%=      5-min Rain = 0
KAM2 240923Z 36007KT 12/12 A2997 RMK A01 T01160115  RH  099%=      5-min Rain = 0
KAM2 240924Z 36007KT 12/12 A2997 RMK A01 T01160115  RH  099%=      5-min Rain = 0
KAM2 240925Z 36007KT 12/12 A2997 RMK A01 T01160115  RH  099%=      5-min Rain = 0
KAM2 240926Z 00008KT 12/12 A2997 RMK A01 T01160115  RH  099%=      5-min Rain = 0
KAM2 240927Z 00007KT 12/12 A2997 RMK A01 T01150115  RH  099%=      5-min Rain = 0
KAM2 240928Z 00006KT 12/12 A2997 RMK A01 T01160115  RH  099%=      5-min Rain = 0
KAM2 240929Z 01006KT 12/12 A2997 RMK A01 T01160115  RH  100%=      5-min Rain = 0
KAM2 240930Z 35007KT 12/12 A2997 RMK A01 T01160115  RH  100%=      5-min Rain = 0
KAM2 240931Z 36008KT 12/12 A2997 RMK A01 T01160115  RH  100%=      5-min Rain = 0
KAM2 240932Z 00009KT 12/11 A2997 RMK A01 T01150114  RH  100%=      5-min Rain = 0
KAM2 240933Z 01008KT 12/11 A2996 RMK A01 T01150114  RH  100%=      5-min Rain = 0
KAM2 240934Z 01007KT 12/11 A2996 RMK A01 T01150114  RH  100%=      5-min Rain = 0
KAM2 240935Z 01006KT 12/11 A2997 RMK A01 T01150114  RH  100%=      5-min Rain = 0
KAM2 240936Z 00006KT 12/11 A2997 RMK A01 T01150114  RH  100%=      5-min Rain = 0
KAM2 240937Z 01006KT 12/11 A2997 RMK A01 T01150114  RH  100%=      5-min Rain = 0
KAM2 240938Z 01007KT 12/11 A2997 RMK A01 T01150114  RH  100%=      5-min Rain = 0
KAM2 240939Z 02008KT 12/11 A2997 RMK A01 T01150114  RH  100%=      5-min Rain = 0
KAM2 240940Z 02008KT 12/11 A2997 RMK A01 T01150114  RH  100%=      5-min Rain = 0
KAM2 240941Z 02007KT 12/11 A2997 RMK A01 T01150114  RH  100%=      5-min Rain = 0
KAM2 240942Z 01007KT 12/11 A2997 RMK A01 T01150114  RH  100%=      5-min Rain = 0
KAM2 240943Z 00006KT 12/11 A2997 RMK A01 T01150114  RH  100%=      5-min Rain = 0
KAM2 240944Z 01007KT 12/12 A2998 RMK A01 T01150115  RH  100%=      5-min Rain = 0
KAM2 240945Z 00006KT 12/12 A2997 RMK A01 T01150115  RH  100%=      5-min Rain = 0
KAM2 240946Z 01007KT 12/12 A2997 RMK A01 T01150115  RH  100%=      5-min Rain = 0
KAM2 240947Z 01008KT 12/12 A2997 RMK A01 T01150115  RH  100%=      5-min Rain = 0
KAM2 240948Z 01007KT 12/12 A2997 RMK A01 T01150115  RH  100%=      5-min Rain = 0
KAM2 240949Z 02004KT 12/12 A2998 RMK A01 T01150115  RH  100%=      5-min Rain = 0
KAM2 240950Z 02005KT 12/12 A2998 RMK A01 T01150115  RH  100%=      5-min Rain = 0
KAM2 240951Z 03005KT 12/12 A2999 RMK A01 T01150115  RH  100%=      5-min Rain = 0
KAM2 240952Z 03006KT 12/12 A2999 RMK A01 T01150115  RH  100%=      5-min Rain = 0
KAM2 240953Z 02006KT 12/11 A2999 RMK A01 T01150114  RH  100%=      5-min Rain = 0
KAM2 240954Z 02007KT 12/12 A2999 RMK A01 T01150115  RH  100%=      5-min Rain = 0
KAM2 240955Z 03007KT 12/12 A2999 RMK A01 T01150115  RH  100%=      5-min Rain = 0
KAM2 240956Z 02006KT 12/12 A2999 RMK A01 T01150115  RH  100%=      5-min Rain = 0
KAM2 240957Z 02005KT 12/12 A2999 RMK A01 T01150115  RH  100%=      5-min Rain = 0
KAM2 240958Z 01004KT 12/12 A2999 RMK A01 T01150115  RH  100%=      5-min Rain = 0
KAM2 240959Z 01004KT 12/12 A2999 RMK A01 T01150115  RH  100%=      5-min Rain = 0
KAM2 241000Z 36006KT 12/12 A2999 RMK A01 T01150115  RH  100%=      5-min Rain = 0
KAM2 241001Z 36007KT 12/12 A2998 RMK A01 T01150115  RH  100%=      5-min Rain = 0
KAM2 241002Z 00007KT 12/12 A2998 RMK A01 T01150115  RH  100%=      5-min Rain = 0
KAM2 241003Z 01006KT 11/11 A2998 RMK A01 T01140114  RH  100%=      5-min Rain = 0
KAM2 241004Z 36005KT 11/11 A2999 RMK A01 T01140114  RH  100%=      5-min Rain = 0
KAM2 241005Z 36005KT 11/11 A2999 RMK A01 T01140114  RH  100%=      5-min Rain = 0
KAM2 241006Z 01005KT 11/11 A30 RMK A01 T01140114  RH  100%=      5-min Rain = 0
KAM2 241007Z 02005KT 11/11 A2999 RMK A01 T01140114  RH  100%=      5-min Rain = 0
KAM2 241008Z 02005KT 11/12 A2999 RMK A01 T01140115  RH  100%=      5-min Rain = 0
KAM2 241009Z 01007KT 12/12 A2999 RMK A01 T01150115  RH  100%=      5-min Rain = 0
KAM2 241010Z 02006KT 12/12 A2999 RMK A01 T01150115  RH  100%=      5-min Rain = 0
KAM2 241011Z 03004KT 12/12 A2999 RMK A01 T01150115  RH  100%=      5-min Rain = 0
KAM2 241012Z 04003KT 12/12 A30 RMK A01 T01150115  RH  100%=      5-min Rain = 0
KAM2 241013Z 03004KT 12/12 A30 RMK A01 T01150115  RH  100%=      5-min Rain = 0
KAM2 241014Z 04004KT 12/12 A30 RMK A01 T01150115  RH  100%=      5-min Rain = 0
KAM2 241015Z 03005KT 12/12 A30 RMK A01 T01150115  RH  100%=      5-min Rain = 0
KAM2 241016Z 03004KT 12/12 A30 RMK A01 T01150115  RH  100%=      5-min Rain = 0
KAM2 241017Z 03004KT 12/12 A30 RMK A01 T01150115  RH  100%=      5-min Rain = 0
KAM2 241018Z 02003KT 12/12 A30 RMK A01 T01150115  RH  100%=      5-min Rain = 0
KAM2 241019Z 02002KT 12/12 A30 RMK A01 T01150115  RH  100%=      5-min Rain = 0
KAM2 241020Z 01004KT 12/12 A30 RMK A01 T01160116  RH  100%=      5-min Rain = 0
KAM2 241021Z 03005KT 12/12 A30 RMK A01 T01160116  RH  100%=      5-min Rain = 0
KAM2 241022Z 04005KT 12/12 A30 RMK A01 T01150115  RH  100%=      5-min Rain = 0
KAM2 241023Z 04005KT 12/12 A30 RMK A01 T01150115  RH  100%=      5-min Rain = 0
KAM2 241024Z 03006KT 12/12 A30 RMK A01 T01150115  RH  100%=      5-min Rain = 0
KAM2 241025Z 04004KT 12/12 A30 RMK A01 T01150115  RH  100%=      5-min Rain = 0
KAM2 241026Z 05006KT 12/12 A30 RMK A01 T01150115  RH  100%=      5-min Rain = 0
KAM2 241027Z 04006KT 12/12 A30 RMK A01 T01150115  RH  100%=      5-min Rain = 0
KAM2 241028Z 04006KT 12/12 A30 RMK A01 T01150115  RH  100%=      5-min Rain = 0
KAM2 241029Z 04005KT 12/12 A30 RMK A01 T01150115  RH  100%=      5-min Rain = 0
KAM2 241030Z 03005KT 12/12 A30 RMK A01 T01150115  RH  100%=      5-min Rain = 0
KAM2 241031Z 03005KT 12/12 A30 RMK A01 T01150115  RH  100%=      5-min Rain = 0
KAM2 241032Z 05005KT 12/12 A30 RMK A01 T01150115  RH  100%=      5-min Rain = 0
KAM2 241033Z 05006KT 12/12 A30 RMK A01 T01150116  RH  100%=      5-min Rain = 0
KAM2 241034Z 05004KT 12/12 A30 RMK A01 T01150115  RH  100%=      5-min Rain = 0
KAM2 241035Z 04005KT 12/12 A30 RMK A01 T01150115  RH  100%=      5-min Rain = 0
KAM2 241036Z 05005KT 12/12 A30 RMK A01 T01150115  RH  100%=      5-min Rain = 0
KAM2 241037Z 05005KT 12/12 A30 RMK A01 T01150115  RH  100%=      5-min Rain = 0
KAM2 241038Z 06005KT 12/12 A30 RMK A01 T01150115  RH  100%=      5-min Rain = 0
KAM2 241039Z 06005KT 12/12 A30 RMK A01 T01150115  RH  100%=      5-min Rain = 0
KAM2 241040Z 06006KT 12/12 A30 RMK A01 T01150115  RH  100%=      5-min Rain = 0
KAM2 241041Z 06006KT 11/12 A30 RMK A01 T01140115  RH  100%=      5-min Rain = 0
KAM2 241042Z 05006KT 12/12 A30 RMK A01 T01150115  RH  100%=      5-min Rain = 0
KAM2 241043Z 04005KT 11/11 A30 RMK A01 T01140114  RH  100%=      5-min Rain = 0
KAM2 241044Z 05005KT 11/11 A30 RMK A01 T01140114  RH  100%=      5-min Rain = 0
KAM2 241045Z 05005KT 11/11 A3001 RMK A01 T01140114  RH  100%=      5-min Rain = 0
KAM2 241046Z 06005KT 11/11 A3001 RMK A01 T01140114  RH  100%=      5-min Rain = 0
KAM2 241047Z 06005KT 11/11 A3001 RMK A01 T01140114  RH  100%=      5-min Rain = 0
KAM2 241048Z 06006KT 11/11 A3001 RMK A01 T01140114  RH  100%=      5-min Rain = 0
KAM2 241049Z 06006KT 11/11 A3001 RMK A01 T01140114  RH  100%=      5-min Rain = 0
KAM2 241050Z 05007KT 11/11 A3001 RMK A01 T01140114  RH  100%=      5-min Rain = 0
KAM2 241051Z 05007KT 11/11 A3001 RMK A01 T01140114  RH  100%=      5-min Rain = 0
KAM2 241052Z 05007KT 12/12 A3001 RMK A01 T01150115  RH  100%=      5-min Rain = 0
KAM2 241053Z 06006KT 11/11 A3001 RMK A01 T01140114  RH  100%=      5-min Rain = 0
KAM2 241054Z 06005KT 11/11 A3001 RMK A01 T01140114  RH  100%=      5-min Rain = 0
KAM2 241055Z 05005KT 12/12 A3001 RMK A01 T01150115  RH  100%=      5-min Rain = 0
KAM2 241056Z 04006KT 12/12 A3001 RMK A01 T01150115  RH  100%=      5-min Rain = 0
KAM2 241057Z 04007KT 12/12 A3001 RMK A01 T01150115  RH  100%=      5-min Rain = 0
KAM2 241058Z 06006KT 11/11 A3001 RMK A01 T01140114  RH  100%=      5-min Rain = 0
KAM2 241059Z 06006KT 11/11 A3001 RMK A01 T01140114  RH  100%=      5-min Rain = 0
KAM2 241100Z 06006KT 11/11 A3001 RMK A01 T01140114  RH  100%=      5-min Rain = 0
KAM2 241101Z 05006KT 11/11 A3001 RMK A01 T01140114  RH  100%=      5-min Rain = 0
KAM2 241102Z 05005KT 11/11 A3001 RMK A01 T01140114  RH  100%=      5-min Rain = 0
KAM2 241103Z 04005KT 11/11 A3001 RMK A01 T01140114  RH  100%=      5-min Rain = 0
KAM2 241104Z 04006KT 11/11 A3001 RMK A01 T01140114  RH  100%=      5-min Rain = 0
KAM2 241105Z 06005KT 11/11 A3001 RMK A01 T01140114  RH  100%=      5-min Rain = 0
KAM2 241106Z 06006KT 11/11 A3001 RMK A01 T01140114  RH  100%=      5-min Rain = 0
KAM2 241107Z 05005KT 11/11 A3001 RMK A01 T01140114  RH  100%=      5-min Rain = 0
KAM2 241108Z 05005KT 11/11 A30 RMK A01 T01140114  RH  100%=      5-min Rain = 0
KAM2 241109Z 04005KT 11/11 A30 RMK A01 T01140114  RH  100%=      5-min Rain = 0
KAM2 241110Z 04007KT 12/12 A30 RMK A01 T01150115  RH  100%=      5-min Rain = 0
KAM2 241111Z 04007KT 12/12 A30 RMK A01 T01150115  RH  100%=      5-min Rain = 0
KAM2 241112Z 04008KT 12/12 A30 RMK A01 T01150115  RH  100%=      5-min Rain = 0
KAM2 241113Z 04007KT 12/12 A30 RMK A01 T01150115  RH  100%=      5-min Rain = 0
KAM2 241114Z 03006KT 12/12 A30 RMK A01 T01150115  RH  100%=      5-min Rain = 0
KAM2 241115Z 03007KT 12/12 A30 RMK A01 T01150115  RH  100%=      5-min Rain = 0
KAM2 241116Z 04007KT 11/12 A30 RMK A01 T01140115  RH  100%=      5-min Rain = 0
KAM2 241117Z 05006KT 12/12 A30 RMK A01 T01150115  RH  100%=      5-min Rain = 0
KAM2 241118Z 05006KT 12/12 A3001 RMK A01 T01150115  RH  100%=      5-min Rain = 0
KAM2 241119Z 04007KT 12/12 A3001 RMK A01 T01150115  RH  100%=      5-min Rain = 0
KAM2 241120Z 03006KT 11/12 A3001 RMK A01 T01140115  RH  100%=      5-min Rain = 0
KAM2 241121Z 04005KT 12/12 A3001 RMK A01 T01150115  RH  100%=      5-min Rain = 0
KAM2 241122Z 04005KT 12/12 A3001 RMK A01 T01150115  RH  100%=      5-min Rain = 0
KAM2 241123Z 03004KT 12/12 A3001 RMK A01 T01150115  RH  100%=      5-min Rain = 0
KAM2 241124Z 02006KT 12/12 A3001 RMK A01 T01150115  RH  100%=      5-min Rain = 0
KAM2 241125Z 03005KT 12/12 A3001 RMK A01 T01150115  RH  100%=      5-min Rain = 0
KAM2 241126Z 02005KT 12/12 A3001 RMK A01 T01150115  RH  100%=      5-min Rain = 0
KAM2 241127Z 02004KT 12/12 A3001 RMK A01 T01150115  RH  100%=      5-min Rain = 0
KAM2 241128Z 02005KT 12/12 A3001 RMK A01 T01150115  RH  100%=      5-min Rain = 0
KAM2 241129Z 03005KT 12/12 A3001 RMK A01 T01150115  RH  100%=      5-min Rain = 0
KAM2 241130Z 04004KT 12/12 A3001 RMK A01 T01150115  RH  100%=      5-min Rain = 0
KAM2 241131Z 05005KT 12/12 A3002 RMK A01 T01150115  RH  100%=      5-min Rain = 0
KAM2 241132Z 04005KT 12/12 A3002 RMK A01 T01150115  RH  100%=      5-min Rain = 0
KAM2 241133Z 03004KT 12/12 A3001 RMK A01 T01150115  RH  100%=      5-min Rain = 0
KAM2 241134Z 02005KT 12/12 A3001 RMK A01 T01150115  RH  100%=      5-min Rain = 0
KAM2 241135Z 04004KT 12/12 A3001 RMK A01 T01150115  RH  100%=      5-min Rain = 0
KAM2 241136Z 04003KT 12/12 A3001 RMK A01 T01150115  RH  100%=      5-min Rain = 0
KAM2 241137Z 04003KT 12/12 A3001 RMK A01 T01150115  RH  100%=      5-min Rain = 0
KAM2 241138Z 02003KT 12/12 A3001 RMK A01 T01150115  RH  100%=      5-min Rain = 0
KAM2 241139Z 04005KT 12/12 A3001 RMK A01 T01160116  RH  100%=      5-min Rain = 0
KAM2 241140Z 03005KT 12/12 A3001 RMK A01 T01150116  RH  100%=      5-min Rain = 0
KAM2 241141Z 02005KT 12/12 A3001 RMK A01 T01150115  RH  100%=      5-min Rain = 0
KAM2 241142Z 03004KT 12/12 A3001 RMK A01 T01150115  RH  100%=      5-min Rain = 0
KAM2 241143Z 04004KT 12/12 A3001 RMK A01 T01150115  RH  100%=      5-min Rain = 0
KAM2 241144Z 04004KT 12/12 A3001 RMK A01 T01150115  RH  100%=      5-min Rain = 0
KAM2 241145Z 04004KT 12/12 A3001 RMK A01 T01150115  RH  100%=      5-min Rain = 0
KAM2 241146Z 02004KT 12/12 A3001 RMK A01 T01150115  RH  100%=      5-min Rain = 0
KAM2 241147Z 02005KT 12/12 A3001 RMK A01 T01150115  RH  100%=      5-min Rain = 0
KAM2 241148Z 03005KT 12/12 A3001 RMK A01 T01150115  RH  100%=      5-min Rain = 0
KAM2 241149Z 03005KT 11/12 A3001 RMK A01 T01140115  RH  100%=      5-min Rain = 0
KAM2 241150Z 03005KT 11/11 A3001 RMK A01 T01140114  RH  100%=      5-min Rain = 0
KAM2 241151Z 03005KT 11/11 A3001 RMK A01 T01140114  RH  100%=      5-min Rain = 0
KAM2 241152Z 03006KT 11/11 A30 RMK A01 T01140114  RH  100%=      5-min Rain = 0
KAM2 241153Z 03005KT 11/11 A3001 RMK A01 T01140114  RH  100%=      5-min Rain = 0
KAM2 241154Z 02005KT 11/11 A3001 RMK A01 T01140114  RH  100%=      5-min Rain = 0
KAM2 241155Z 02005KT 11/11 A30 RMK A01 T01140114  RH  100%=      5-min Rain = 0
KAM2 241156Z 01004KT 11/11 A30 RMK A01 T01140114  RH  100%=      5-min Rain = 0
KAM2 241157Z 01005KT 11/11 A30 RMK A01 T01140114  RH  100%=      5-min Rain = 0
KAM2 241158Z 01004KT 11/11 A30 RMK A01 T01140114  RH  100%=      5-min Rain = 0
KAM2 241159Z 01004KT 11/11 A30 RMK A01 T01130114  RH  100%=      5-min Rain = 0
KAM2 241200Z 02004KT 11/11 A30 RMK A01 T01130113  RH  100%=      5-min Rain = 0
KAM2 241201Z 01004KT 11/11 A30 RMK A01 T01130113  RH  100%=      5-min Rain = 0
KAM2 241202Z 01004KT 11/11 A3001 RMK A01 T01130114  RH  100%=      5-min Rain = 0
KAM2 241203Z 01003KT 11/11 A3001 RMK A01 T01130113  RH  100%=      5-min Rain = 0
KAM2 241204Z 00004KT 11/11 A3001 RMK A01 T01130113  RH  100%=      5-min Rain = 0
KAM2 241205Z 00004KT 11/11 A3001 RMK A01 T01140114  RH  100%=      5-min Rain = 0
KAM2 241206Z 00004KT 11/11 A3001 RMK A01 T01140114  RH  100%=      5-min Rain = 0
KAM2 241207Z 01003KT 11/11 A3001 RMK A01 T01140114  RH  100%=      5-min Rain = 0
KAM2 241208Z 01003KT 11/11 A3001 RMK A01 T01140114  RH  100%=      5-min Rain = 0
KAM2 241209Z 01003KT 11/11 A30 RMK A01 T01140114  RH  100%=      5-min Rain = 0
KAM2 241210Z 35003KT 11/11 A30 RMK A01 T01140114  RH  100%=      5-min Rain = 0
KAM2 241211Z 01003KT 11/11 A30 RMK A01 T01140114  RH  100%=      5-min Rain = 0
KAM2 241212Z 02003KT 11/11 A30 RMK A01 T01140114  RH  100%=      5-min Rain = 0
KAM2 241213Z 00003KT 12/12 A30 RMK A01 T01150115  RH  100%=      5-min Rain = 0
KAM2 241214Z 35004KT 12/12 A3001 RMK A01 T01150115  RH  100%=      5-min Rain = 0
KAM2 241215Z 00004KT 12/12 A3001 RMK A01 T01150115  RH  100%=      5-min Rain = 0
KAM2 241216Z 01003KT 12/12 A3001 RMK A01 T01150115  RH  100%=      5-min Rain = 0
KAM2 241217Z 01004KT 12/12 A3001 RMK A01 T01150115  RH  100%=      5-min Rain = 0
KAM2 241218Z 01004KT 12/12 A3001 RMK A01 T01150115  RH  100%=      5-min Rain = 0
KAM2 241219Z 01004KT 12/12 A3001 RMK A01 T01150115  RH  100%=      5-min Rain = 0
KAM2 241220Z 01005KT 12/12 A3001 RMK A01 T01150115  RH  100%=      5-min Rain = 0
KAM2 241221Z 01004KT 12/12 A3001 RMK A01 T01150115  RH  100%=      5-min Rain = 0
KAM2 241222Z 01003KT 12/12 A3001 RMK A01 T01150115  RH  100%=      5-min Rain = 0
KAM2 241223Z 36004KT 11/11 A3001 RMK A01 T01140114  RH  100%=      5-min Rain = 0
KAM2 241224Z 35004KT 11/12 A3001 RMK A01 T01140115  RH  100%=      5-min Rain = 0
KAM2 241225Z 01004KT 11/11 A3001 RMK A01 T01140114  RH  100%=      5-min Rain = 0
KAM2 241226Z 02004KT 11/11 A3002 RMK A01 T01140114  RH  100%=      5-min Rain = 0
KAM2 241227Z 02003KT 11/11 A3002 RMK A01 T01140114  RH  100%=      5-min Rain = 0
KAM2 241228Z 02002KT 11/11 A3002 RMK A01 T01140114  RH  100%=      5-min Rain = 0
KAM2 241229Z 03002KT 11/11 A3002 RMK A01 T01130113  RH  100%=      5-min Rain = 0
KAM2 241230Z 05003KT 11/11 A3002 RMK A01 T01130113  RH  100%=      5-min Rain = 0
KAM2 241231Z 04002KT 11/11 A3002 RMK A01 T01140114  RH  100%=      5-min Rain = 0
KAM2 241232Z 02004KT 11/11 A3002 RMK A01 T01140114  RH  100%=      5-min Rain = 0
KAM2 241233Z 02003KT 11/11 A3002 RMK A01 T01140114  RH  100%=      5-min Rain = 0
KAM2 241234Z 02003KT 11/11 A3002 RMK A01 T01140114  RH  100%=      5-min Rain = 0
KAM2 241235Z 01003KT 11/11 A3002 RMK A01 T01140114  RH  100%=      5-min Rain = 0
KAM2 241236Z 01004KT 11/11 A3002 RMK A01 T01140114  RH  100%=      5-min Rain = 0
KAM2 241237Z 01004KT 11/11 A3002 RMK A01 T01140114  RH  100%=      5-min Rain = 0
KAM2 241238Z 00005KT 11/11 A3001 RMK A01 T01140114  RH  100%=      5-min Rain = 0
KAM2 241239Z 00004KT 11/11 A3001 RMK A01 T01140114  RH  100%=      5-min Rain = 0
KAM2 241240Z 36004KT 11/11 A3001 RMK A01 T01130114  RH  100%=      5-min Rain = 0
KAM2 241241Z 34003KT 11/11 A3001 RMK A01 T01130113  RH  100%=      5-min Rain = 0
KAM2 241242Z 36005KT 11/11 A3001 RMK A01 T01130113  RH  100%=      5-min Rain = 0
KAM2 241243Z 01005KT 11/11 A3001 RMK A01 T01130113  RH  100%=      5-min Rain = 0
KAM2 241244Z 01005KT 11/11 A3001 RMK A01 T01130113  RH  100%=      5-min Rain = 0
KAM2 241245Z 02004KT 11/11 A3001 RMK A01 T01130113  RH  100%=      5-min Rain = 0
KAM2 241246Z 02004KT 11/11 A3001 RMK A01 T01130113  RH  100%=      5-min Rain = 0
KAM2 241247Z 02004KT 11/11 A3001 RMK A01 T01130113  RH  100%=      5-min Rain = 0
KAM2 241248Z 02004KT 11/11 A3001 RMK A01 T01130113  RH  100%=      5-min Rain = 0
KAM2 241249Z 02004KT 11/11 A3001 RMK A01 T01130113  RH  100%=      5-min Rain = 0
KAM2 241250Z 00003KT 11/11 A3001 RMK A01 T01130113  RH  100%=      5-min Rain = 0
KAM2 241251Z 36003KT 11/11 A3001 RMK A01 T01130113  RH  100%=      5-min Rain = 0
KAM2 241252Z 36004KT 11/11 A3001 RMK A01 T01130113  RH  100%=      5-min Rain = 0
KAM2 241253Z 36003KT 11/11 A3001 RMK A01 T01130113  RH  100%=      5-min Rain = 0
KAM2 241254Z 01002KT 11/11 A3001 RMK A01 T01140114  RH  100%=      5-min Rain = 0
KAM2 241255Z 02002KT 11/11 A3001 RMK A01 T01140114  RH  100%=      5-min Rain = 0
KAM2 241256Z 03002KT 12/12 A3001 RMK A01 T01150115  RH  100%=      5-min Rain = 0
KAM2 241257Z 01002KT 12/12 A3001 RMK A01 T01150115  RH  100%=      5-min Rain = 0
KAM2 241258Z 36003KT 12/12 A3001 RMK A01 T01160116  RH  100%=      5-min Rain = 0
KAM2 241259Z 01003KT 12/12 A3001 RMK A01 T01150115  RH  100%=      5-min Rain = 0
KAM2 241300Z 00002KT 11/11 A3001 RMK A01 T01140114  RH  100%=      5-min Rain = 0
KAM2 241301Z 35003KT 11/11 A3001 RMK A01 T01140114  RH  100%=      5-min Rain = 0
KAM2 241302Z 35002KT 11/11 A3002 RMK A01 T01140114  RH  100%=      5-min Rain = 0
KAM2 241303Z 34003KT 11/11 A3001 RMK A01 T01130113  RH  100%=      5-min Rain = 0
KAM2 241304Z 35002KT 11/11 A3001 RMK A01 T01130113  RH  100%=      5-min Rain = 0
KAM2 241305Z 35002KT 11/11 A3002 RMK A01 T01130113  RH  100%=      5-min Rain = 0
KAM2 241306Z 35001KT 11/11 A3002 RMK A01 T01130113  RH  100%=      5-min Rain = 0
KAM2 241307Z 02001KT 11/11 A3002 RMK A01 T01130114  RH  100%=      5-min Rain = 0
KAM2 241308Z 06000KT 11/11 A3002 RMK A01 T01130113  RH  100%=      5-min Rain = 0
KAM2 241309Z 00000KT 11/11 A3002 RMK A01 T01140114  RH  100%=      5-min Rain = 0
KAM2 241310Z 00000KT 11/11 A3002 RMK A01 T01140114  RH  100%=      5-min Rain = 0
KAM2 241311Z 31000KT 12/12 A3002 RMK A01 T01150115  RH  100%=      5-min Rain = 0
KAM2 241312Z 32001KT 12/12 A3002 RMK A01 T01150115  RH  100%=      5-min Rain = 0
KAM2 241313Z 35001KT 12/12 A3002 RMK A01 T01150115  RH  100%=      5-min Rain = 0
KAM2 241314Z 00002KT 12/12 A3002 RMK A01 T01150115  RH  100%=      5-min Rain = 0
KAM2 241315Z 36002KT 12/12 A3002 RMK A01 T01170118  RH  100%=      5-min Rain = 0
KAM2 241316Z 35002KT 12/12 A3002 RMK A01 T01190119  RH  100%=      5-min Rain = 0
KAM2 241317Z 33002KT 12/12 A3002 RMK A01 T01170117  RH  100%=      5-min Rain = 0
KAM2 241318Z 32003KT 12/12 A3002 RMK A01 T01170118  RH  100%=      5-min Rain = 0
KAM2 241319Z 31004KT 12/12 A3002 RMK A01 T01180118  RH  100%=      5-min Rain = 0
KAM2 241320Z 30004KT 12/12 A3002 RMK A01 T01180118  RH  100%=      5-min Rain = 0
KAM2 241321Z 30004KT 12/12 A3002 RMK A01 T01180118  RH  100%=      5-min Rain = 0
KAM2 241322Z 31004KT 12/12 A3002 RMK A01 T01180118  RH  100%=      5-min Rain = 0
KAM2 241323Z 32002KT 12/12 A3002 RMK A01 T01180118  RH  100%=      5-min Rain = 0
KAM2 241324Z 34001KT 12/12 A3002 RMK A01 T01180118  RH  100%=      5-min Rain = 0
KAM2 241325Z 35000KT 12/12 A3002 RMK A01 T01190118  RH  100%=      5-min Rain = 0
KAM2 241326Z 02001KT 12/12 A3002 RMK A01 T01180118  RH  100%=      5-min Rain = 0
KAM2 241327Z 00000KT 12/12 A3002 RMK A01 T01170117  RH  100%=      5-min Rain = 0
KAM2 241328Z 00001KT 12/12 A3002 RMK A01 T01170117  RH  100%=      5-min Rain = 0
KAM2 241329Z 01002KT 12/12 A3002 RMK A01 T01180117  RH  100%=      5-min Rain = 0
KAM2 241330Z 02002KT 12/12 A3002 RMK A01 T01180118  RH  100%=      5-min Rain = 0
KAM2 241331Z 02002KT 12/12 A3002 RMK A01 T01190118  RH  100%=      5-min Rain = 0
KAM2 241332Z 36003KT 12/12 A3002 RMK A01 T01190118  RH  099%=      5-min Rain = 0
KAM2 241333Z 00002KT 12/12 A3002 RMK A01 T01190117  RH  099%=      5-min Rain = 0
KAM2 241334Z 02002KT 12/12 A3002 RMK A01 T01190118  RH  099%=      5-min Rain = 0
KAM2 241335Z 02003KT 12/12 A3002 RMK A01 T01200119  RH  099%=      5-min Rain = 0
KAM2 241336Z 02003KT 12/12 A3002 RMK A01 T01210119  RH  099%=      5-min Rain = 0
KAM2 241337Z 36002KT 12/12 A3002 RMK A01 T01200118  RH  099%=      5-min Rain = 0
KAM2 241338Z 36001KT 12/12 A3002 RMK A01 T01200118  RH  098%=      5-min Rain = 0
KAM2 241339Z 35000KT 12/12 A3002 RMK A01 T01210119  RH  098%=      5-min Rain = 0
KAM2 241340Z 01000KT 12/12 A3002 RMK A01 T01220119  RH  098%=      5-min Rain = 0
KAM2 241341Z 00001KT 12/12 A3002 RMK A01 T01220120  RH  098%=      5-min Rain = 0
KAM2 241342Z 01001KT 12/12 A3002 RMK A01 T01230119  RH  098%=      5-min Rain = 0
KAM2 241343Z 36000KT 12/12 A3002 RMK A01 T01230119  RH  098%=      5-min Rain = 0
KAM2 241344Z 32001KT 12/12 A3002 RMK A01 T01220118  RH  097%=      5-min Rain = 0
KAM2 241345Z 31003KT 12/12 A3002 RMK A01 T01230119  RH  097%=      5-min Rain = 0
KAM2 241346Z 31003KT 12/12 A3002 RMK A01 T01240121  RH  098%=      5-min Rain = 0
KAM2 241347Z 31002KT 13/12 A3002 RMK A01 T01250122  RH  098%=      5-min Rain = 0
KAM2 241348Z 30003KT 13/12 A3002 RMK A01 T01250121  RH  097%=      5-min Rain = 0
KAM2 241349Z 30003KT 12/12 A3002 RMK A01 T01240120  RH  097%=      5-min Rain = 0
KAM2 241350Z 30003KT 12/12 A3002 RMK A01 T01240120  RH  097%=      5-min Rain = 0
KAM2 241351Z 30003KT 12/12 A3002 RMK A01 T01240120  RH  097%=      5-min Rain = 0
KAM2 241352Z 31003KT 12/12 A3002 RMK A01 T01230119  RH  097%=      5-min Rain = 0
KAM2 241353Z 31004KT 12/12 A3002 RMK A01 T01230118  RH  097%=      5-min Rain = 0
KAM2 241354Z 34003KT 12/12 A3002 RMK A01 T01230119  RH  098%=      5-min Rain = 0
KAM2 241355Z 34004KT 12/12 A3002 RMK A01 T01240120  RH  098%=      5-min Rain = 0
KAM2 241356Z 33004KT 12/12 A3002 RMK A01 T01230119  RH  097%=      5-min Rain = 0
KAM2 241357Z 35003KT 12/12 A3002 RMK A01 T01220118  RH  097%=      5-min Rain = 0
KAM2 241358Z 36003KT 12/12 A3002 RMK A01 T01220119  RH  098%=      5-min Rain = 0
KAM2 241359Z 36002KT 12/12 A3002 RMK A01 T01230119  RH  098%=      5-min Rain = 0
KAM2 241400Z 34001KT 12/12 A3002 RMK A01 T01230119  RH  098%=      5-min Rain = 0
KAM2 241401Z 31000KT 12/12 A3002 RMK A01 T01230119  RH  097%=      5-min Rain = 0
KAM2 241402Z 00000KT 12/12 A3003 RMK A01 T01230118  RH  097%=      5-min Rain = 0
KAM2 241403Z 27001KT 12/12 A3003 RMK A01 T01230118  RH  097%=      5-min Rain = 0
KAM2 241404Z 27003KT 12/12 A3003 RMK A01 T01230118  RH  097%=      5-min Rain = 0
KAM2 241405Z 27003KT 12/12 A3003 RMK A01 T01240118  RH  097%=      5-min Rain = 0
KAM2 241406Z 28003KT 12/12 A3002 RMK A01 T01240118  RH  096%=      5-min Rain = 0
KAM2 241407Z 30003KT 12/12 A3002 RMK A01 T01240119  RH  096%=      5-min Rain = 0
KAM2 241408Z 30003KT 13/12 A3002 RMK A01 T01260121  RH  097%=      5-min Rain = 0
KAM2 241409Z 31002KT 13/12 A3003 RMK A01 T01260120  RH  096%=      5-min Rain = 0
KAM2 241410Z 28001KT 13/12 A3002 RMK A01 T01260120  RH  096%=      5-min Rain = 0
KAM2 241411Z 31002KT 13/12 A3002 RMK A01 T01270121  RH  096%=      5-min Rain = 0
KAM2 241412Z 29003KT 13/12 A3002 RMK A01 T01280122  RH  096%=      5-min Rain = 0
KAM2 241413Z 29004KT 13/12 A3002 RMK A01 T01280121  RH  096%=      5-min Rain = 0
KAM2 241414Z 29002KT 13/12 A3002 RMK A01 T01290122  RH  095%=      5-min Rain = 0
KAM2 241415Z 30003KT 13/12 A3002 RMK A01 T01300122  RH  095%=      5-min Rain = 0
KAM2 241416Z 29003KT 13/12 A3002 RMK A01 T01290120  RH  094%=      5-min Rain = 0
KAM2 241417Z 30003KT 13/12 A3002 RMK A01 T01300121  RH  095%=      5-min Rain = 0
KAM2 241418Z 29004KT 13/12 A3002 RMK A01 T01300121  RH  094%=      5-min Rain = 0
KAM2 241419Z 27002KT 13/12 A3002 RMK A01 T01300121  RH  094%=      5-min Rain = 0
KAM2 241420Z 28003KT 13/12 A3002 RMK A01 T01290119  RH  094%=      5-min Rain = 0
KAM2 241421Z 26002KT 13/12 A3002 RMK A01 T01280117  RH  093%=      5-min Rain = 0
KAM2 241422Z 25002KT 13/12 A3002 RMK A01 T01280118  RH  094%=      5-min Rain = 0
KAM2 241423Z 24002KT 13/12 A3002 RMK A01 T01290121  RH  095%=      5-min Rain = 0
KAM2 241424Z 26002KT 13/12 A3002 RMK A01 T01290120  RH  094%=      5-min Rain = 0
KAM2 241425Z 25003KT 13/12 A3002 RMK A01 T01300121  RH  094%=      5-min Rain = 0
KAM2 241426Z 25003KT 13/12 A3002 RMK A01 T01300120  RH  094%=      5-min Rain = 0
KAM2 241427Z 26003KT 13/12 A3002 RMK A01 T01300120  RH  093%=      5-min Rain = 0
KAM2 241428Z 26003KT 13/12 A3002 RMK A01 T01300120  RH  093%=      5-min Rain = 0
KAM2 241429Z 26003KT 13/12 A3002 RMK A01 T01300119  RH  093%=      5-min Rain = 0
KAM2 241430Z 25002KT 13/12 A3002 RMK A01 T01300118  RH  093%=      5-min Rain = 0
KAM2 241431Z 24002KT 13/12 A3002 RMK A01 T01300120  RH  093%=      5-min Rain = 0
KAM2 241432Z 23001KT 13/12 A3003 RMK A01 T01300119  RH  093%=      5-min Rain = 0
KAM2 241433Z 22002KT 13/12 A3003 RMK A01 T01310121  RH  093%=      5-min Rain = 0
KAM2 241434Z 23002KT 13/12 A3003 RMK A01 T01330122  RH  093%=      5-min Rain = 0
KAM2 241435Z 22002KT 13/12 A3003 RMK A01 T01330121  RH  092%=      5-min Rain = 0
KAM2 241436Z 22001KT 13/12 A3002 RMK A01 T01340122  RH  092%=      5-min Rain = 0
KAM2 241437Z 20001KT 14/12 A3002 RMK A01 T01350122  RH  092%=      5-min Rain = 0
KAM2 241438Z 25002KT 14/12 A3002 RMK A01 T01360123  RH  091%=      5-min Rain = 0
KAM2 241439Z 31003KT 14/12 A3002 RMK A01 T01370123  RH  091%=      5-min Rain = 0
KAM2 241440Z 34002KT 14/12 A3002 RMK A01 T01370121  RH  090%=      5-min Rain = 0
KAM2 241441Z 35002KT 14/12 A3002 RMK A01 T01380121  RH  090%=      5-min Rain = 0
KAM2 241442Z 33002KT 14/12 A3002 RMK A01 T01390123  RH  090%=      5-min Rain = 0
KAM2 241443Z 30002KT 14/13 A3002 RMK A01 T01400125  RH  091%=      5-min Rain = 0
KAM2 241444Z 29002KT 14/13 A3002 RMK A01 T01420125  RH  090%=      5-min Rain = 0
KAM2 241445Z 29002KT 14/13 A3002 RMK A01 T01420125  RH  089%=      5-min Rain = 0
KAM2 241446Z 30001KT 14/13 A3002 RMK A01 T01440127  RH  090%=      5-min Rain = 0
KAM2 241447Z 31003KT 15/13 A3002 RMK A01 T01460129  RH  090%=      5-min Rain = 0
KAM2 241448Z 31003KT 15/13 A3002 RMK A01 T01470128  RH  088%=      5-min Rain = 0
KAM2 241449Z 32002KT 15/12 A3002 RMK A01 T01470124  RH  086%=      5-min Rain = 0
KAM2 241450Z 32002KT 15/12 A3002 RMK A01 T01460122  RH  086%=      5-min Rain = 0
KAM2 241451Z 31001KT 15/12 A3002 RMK A01 T01450122  RH  086%=      5-min Rain = 0
KAM2 241452Z 00000KT 15/13 A3002 RMK A01 T01460126  RH  088%=      5-min Rain = 0
KAM2 241453Z 33001KT 15/13 A3002 RMK A01 T01470126  RH  087%=      5-min Rain = 0
KAM2 241454Z 35002KT 15/12 A3002 RMK A01 T01480122  RH  085%=      5-min Rain = 0
KAM2 241455Z 35001KT 15/12 A3002 RMK A01 T01480124  RH  086%=      5-min Rain = 0
KAM2 241456Z 33002KT 15/13 A3002 RMK A01 T01490128  RH  087%=      5-min Rain = 0
KAM2 241457Z 32003KT 15/13 A3002 RMK A01 T01500126  RH  086%=      5-min Rain = 0
KAM2 241458Z 31003KT 15/13 A3002 RMK A01 T01510128  RH  086%=      5-min Rain = 0
KAM2 241459Z 30001KT 15/13 A3002 RMK A01 T01510127  RH  085%=      5-min Rain = 0
KAM2 241500Z 32002KT 15/13 A3002 RMK A01 T01510127  RH  085%=      5-min Rain = 0
KAM2 241501Z 35003KT 15/13 A3002 RMK A01 T01530133  RH  088%=      5-min Rain = 0
KAM2 241502Z 34003KT 16/13 A3002 RMK A01 T01550132  RH  086%=      5-min Rain = 0
KAM2 241503Z 31002KT 16/13 A3002 RMK A01 T01560131  RH  085%=      5-min Rain = 0
KAM2 241504Z 27002KT 16/13 A3002 RMK A01 T01550130  RH  085%=      5-min Rain = 0
KAM2 241505Z 27001KT 15/13 A3002 RMK A01 T01540130  RH  086%=      5-min Rain = 0
KAM2 241506Z 35000KT 15/13 A3002 RMK A01 T01540130  RH  085%=      5-min Rain = 0
KAM2 241507Z 33001KT 15/13 A3002 RMK A01 T01540130  RH  086%=      5-min Rain = 0
KAM2 241508Z 29001KT 16/13 A3002 RMK A01 T01550129  RH  085%=      5-min Rain = 0
KAM2 241509Z 26003KT 16/13 A3002 RMK A01 T01550130  RH  085%=      5-min Rain = 0
KAM2 241510Z 25002KT 16/13 A3002 RMK A01 T01550128  RH  084%=      5-min Rain = 0
KAM2 241511Z 24002KT 15/13 A3002 RMK A01 T01540128  RH  085%=      5-min Rain = 0
KAM2 241512Z 20001KT 15/13 A3002 RMK A01 T01530128  RH  085%=      5-min Rain = 0
KAM2 241513Z 18001KT 15/13 A3002 RMK A01 T01530129  RH  086%=      5-min Rain = 0
KAM2 241514Z 16001KT 15/13 A3002 RMK A01 T01530129  RH  085%=      5-min Rain = 0
KAM2 241515Z 15000KT 15/13 A3002 RMK A01 T01530131  RH  087%=      5-min Rain = 0
KAM2 241516Z 11000KT 16/13 A3002 RMK A01 T01550134  RH  088%=      5-min Rain = 0
KAM2 241517Z 02001KT 16/14 A3002 RMK A01 T01570136  RH  088%=      5-min Rain = 0
KAM2 241518Z 04001KT 16/13 A3002 RMK A01 T01570133  RH  085%=      5-min Rain = 0
KAM2 241519Z 08001KT 16/13 A3002 RMK A01 T01580134  RH  086%=      5-min Rain = 0
KAM2 241520Z 10001KT 16/13 A3002 RMK A01 T01590134  RH  085%=      5-min Rain = 0
KAM2 241521Z 09000KT 16/14 A3002 RMK A01 T01600136  RH  086%=      5-min Rain = 0
KAM2 241522Z 03001KT 16/14 A3002 RMK A01 T01620136  RH  084%=      5-min Rain = 0
KAM2 241523Z 04001KT 16/13 A3002 RMK A01 T01630134  RH  083%=      5-min Rain = 0
KAM2 241524Z 06001KT 17/14 A3002 RMK A01 T01650137  RH  084%=      5-min Rain = 0
KAM2 241525Z 12001KT 17/13 A3002 RMK A01 T01650133  RH  081%=      5-min Rain = 0
KAM2 241526Z 15002KT 17/14 A3002 RMK A01 T01660138  RH  084%=      5-min Rain = 0
KAM2 241527Z 16002KT 17/14 A3002 RMK A01 T01680140  RH  083%=      5-min Rain = 0
KAM2 241528Z 22001KT 17/14 A3002 RMK A01 T01700138  RH  082%=      5-min Rain = 0
KAM2 241529Z 22001KT 17/14 A3002 RMK A01 T01700139  RH  082%=      5-min Rain = 0
KAM2 241530Z 20000KT 17/14 A3002 RMK A01 T01710137  RH  081%=      5-min Rain = 0
KAM2 241531Z 28000KT 17/14 A3002 RMK A01 T01700137  RH  081%=      5-min Rain = 0
KAM2 241532Z 24003KT 17/14 A3002 RMK A01 T01700138  RH  081%=      5-min Rain = 0
KAM2 241533Z 23003KT 17/13 A3002 RMK A01 T01690133  RH  079%=      5-min Rain = 0
KAM2 241534Z 22001KT 17/13 A3002 RMK A01 T01660132  RH  080%=      5-min Rain = 0
KAM2 241535Z 17000KT 17/14 A3002 RMK A01 T01660135  RH  082%=      5-min Rain = 0
KAM2 241536Z 14000KT 17/13 A3002 RMK A01 T01660134  RH  081%=      5-min Rain = 0
KAM2 241537Z 29000KT 17/13 A3002 RMK A01 T01670133  RH  080%=      5-min Rain = 0
KAM2 241538Z 26002KT 17/14 A3002 RMK A01 T01680136  RH  081%=      5-min Rain = 0
KAM2 241539Z 25003KT 17/14 A3002 RMK A01 T01690136  RH  081%=      5-min Rain = 0
KAM2 241540Z 26001KT 17/13 A3002 RMK A01 T01690134  RH  080%=      5-min Rain = 0
KAM2 241541Z 24000KT 17/14 A3002 RMK A01 T01690135  RH  080%=      5-min Rain = 0
KAM2 241542Z 23000KT 17/14 A3002 RMK A01 T01700139  RH  082%=      5-min Rain = 0
KAM2 241543Z 18001KT 17/14 A3002 RMK A01 T01730138  RH  080%=      5-min Rain = 0
KAM2 241544Z 04000KT 17/14 A3002 RMK A01 T01740136  RH  078%=      5-min Rain = 0
KAM2 241545Z 24001KT 18/14 A3002 RMK A01 T01750137  RH  078%=      5-min Rain = 0
KAM2 241546Z 27002KT 18/14 A3002 RMK A01 T01750136  RH  078%=      5-min Rain = 0
KAM2 241547Z 32001KT 17/13 A3002 RMK A01 T01740132  RH  077%=      5-min Rain = 0
KAM2 241548Z 29003KT 17/14 A3002 RMK A01 T01740139  RH  080%=      5-min Rain = 0
KAM2 241549Z 29004KT 17/14 A3002 RMK A01 T01740139  RH  080%=      5-min Rain = 0
KAM2 241550Z 28005KT 17/14 A3002 RMK A01 T01740137  RH  079%=      5-min Rain = 0
KAM2 241551Z 27003KT 17/14 A3002 RMK A01 T01730136  RH  079%=      5-min Rain = 0
KAM2 241552Z 28003KT 17/14 A3002 RMK A01 T01710136  RH  080%=      5-min Rain = 0
KAM2 241553Z 28004KT 17/14 A3002 RMK A01 T01710137  RH  080%=      5-min Rain = 0
KAM2 241554Z 27002KT 17/14 A3002 RMK A01 T01710137  RH  080%=      5-min Rain = 0
KAM2 241555Z 23000KT 17/14 A3002 RMK A01 T01710136  RH  080%=      5-min Rain = 0
KAM2 241556Z 29002KT 17/14 A3002 RMK A01 T01710136  RH  080%=      5-min Rain = 0
KAM2 241557Z 28004KT 17/14 A3002 RMK A01 T01710136  RH  080%=      5-min Rain = 0
KAM2 241558Z 27004KT 17/14 A3002 RMK A01 T01710138  RH  081%=      5-min Rain = 0
KAM2 241559Z 26003KT 17/14 A3002 RMK A01 T01710135  RH  079%=      5-min Rain = 0
KAM2 241600Z 29003KT 17/14 A3002 RMK A01 T01710138  RH  081%=      5-min Rain = 0
KAM2 241601Z 28003KT 17/14 A3002 RMK A01 T01710137  RH  080%=      5-min Rain = 0
KAM2 241602Z 30003KT 17/14 A3002 RMK A01 T01710136  RH  080%=      5-min Rain = 0
KAM2 241603Z 28004KT 17/14 A3002 RMK A01 T01710139  RH  081%=      5-min Rain = 0
KAM2 241604Z 30004KT 17/14 A3002 RMK A01 T01730137  RH  079%=      5-min Rain = 0
KAM2 241605Z 30005KT 17/14 A3002 RMK A01 T01730137  RH  079%=      5-min Rain = 0
KAM2 241606Z 30005KT 17/14 A3002 RMK A01 T01720137  RH  080%=      5-min Rain = 0
KAM2 241607Z 32004KT 17/14 A3002 RMK A01 T01740140  RH  080%=      5-min Rain = 0
KAM2 241608Z 31004KT 18/14 A3002 RMK A01 T01750138  RH  079%=      5-min Rain = 0
KAM2 241609Z 26004KT 18/14 A3002 RMK A01 T01750140  RH  080%=      5-min Rain = 0
KAM2 241610Z 25004KT 18/14 A3002 RMK A01 T01750138  RH  079%=      5-min Rain = 0
KAM2 241611Z 24002KT 17/14 A3002 RMK A01 T01740136  RH  078%=      5-min Rain = 0
KAM2 241612Z 28004KT 17/14 A3002 RMK A01 T01740141  RH  081%=      5-min Rain = 0
KAM2 241613Z 28004KT 18/14 A3002 RMK A01 T01760143  RH  081%=      5-min Rain = 0
KAM2 241614Z 27004KT 18/14 A3002 RMK A01 T01780138  RH  077%=      5-min Rain = 0
KAM2 241615Z 28004KT 18/14 A3002 RMK A01 T01770136  RH  077%=      5-min Rain = 0
KAM2 241616Z 28004KT 18/14 A3002 RMK A01 T01750136  RH  077%=      5-min Rain = 0
KAM2 241617Z 26003KT 18/14 A3002 RMK A01 T01750137  RH  079%=      5-min Rain = 0
KAM2 241618Z 22002KT 18/14 A3002 RMK A01 T01750138  RH  079%=      5-min Rain = 0
KAM2 241619Z 26003KT 18/14 A3002 RMK A01 T01760138  RH  078%=      5-min Rain = 0
KAM2 241620Z 28003KT 18/14 A3002 RMK A01 T01770139  RH  078%=      5-min Rain = 0
KAM2 241621Z 30004KT 18/14 A3002 RMK A01 T01780141  RH  079%=      5-min Rain = 0
KAM2 241622Z 28004KT 18/14 A3002 RMK A01 T01790138  RH  077%=      5-min Rain = 0
KAM2 241623Z 28003KT 18/14 A3002 RMK A01 T01790135  RH  076%=      5-min Rain = 0
KAM2 241624Z 31003KT 18/14 A3002 RMK A01 T01780136  RH  076%=      5-min Rain = 0
KAM2 241625Z 28005KT 18/14 A3002 RMK A01 T01780139  RH  078%=      5-min Rain = 0
KAM2 241626Z 30003KT 18/14 A3002 RMK A01 T01790138  RH  077%=      5-min Rain = 0
KAM2 241627Z 33003KT 18/14 A3002 RMK A01 T01790137  RH  076%=      5-min Rain = 0
KAM2 241628Z 31002KT 18/14 A3002 RMK A01 T01790136  RH  076%=      5-min Rain = 0
KAM2 241629Z 26003KT 18/14 A3002 RMK A01 T01790140  RH  078%=      5-min Rain = 0
KAM2 241630Z 25003KT 18/14 A3002 RMK A01 T01810139  RH  077%=      5-min Rain = 0
KAM2 241631Z 24004KT 18/14 A3002 RMK A01 T01810139  RH  076%=      5-min Rain = 0
KAM2 241632Z 21002KT 18/14 A3002 RMK A01 T01820137  RH  075%=      5-min Rain = 0
KAM2 241633Z 23003KT 18/14 A3002 RMK A01 T01820138  RH  076%=      5-min Rain = 0
KAM2 241634Z 26002KT 18/14 A3002 RMK A01 T01820140  RH  077%=      5-min Rain = 0
KAM2 241635Z 26002KT 18/14 A3002 RMK A01 T01820138  RH  075%=      5-min Rain = 0
KAM2 241636Z 32002KT 18/14 A3002 RMK A01 T01820144  RH  078%=      5-min Rain = 0
KAM2 241637Z 33003KT 19/15 A3002 RMK A01 T01850145  RH  078%=      5-min Rain = 0
KAM2 241638Z 26003KT 19/14 A3002 RMK A01 T01860144  RH  076%=      5-min Rain = 0
KAM2 241639Z 27006KT 19/15 A3002 RMK A01 T01870145  RH  076%=      5-min Rain = 0
KAM2 241640Z 27007KT 19/14 A3002 RMK A01 T01880143  RH  075%=      5-min Rain = 0
KAM2 241641Z 27005KT 19/14 A3002 RMK A01 T01880143  RH  075%=      5-min Rain = 0
KAM2 241642Z 27004KT 19/14 A3002 RMK A01 T01870142  RH  075%=      5-min Rain = 0
KAM2 241643Z 27002KT 19/14 A3002 RMK A01 T01860139  RH  074%=      5-min Rain = 0
KAM2 241644Z 23002KT 19/14 A3002 RMK A01 T01860138  RH  074%=      5-min Rain = 0
KAM2 241645Z 27004KT 19/14 A3002 RMK A01 T01860142  RH  075%=      5-min Rain = 0
KAM2 241646Z 31004KT 19/14 A3002 RMK A01 T01880144  RH  076%=      5-min Rain = 0
KAM2 241647Z 30006KT 19/15 A3002 RMK A01 T01890146  RH  076%=      5-min Rain = 0
KAM2 241648Z 29005KT 19/15 A3002 RMK A01 T01910147  RH  076%=      5-min Rain = 0
KAM2 241649Z 29005KT 19/15 A3002 RMK A01 T01920146  RH  074%=      5-min Rain = 0
KAM2 241650Z 29005KT 19/15 A3002 RMK A01 T01920145  RH  074%=      5-min Rain = 0
KAM2 241651Z 31003KT 19/15 A3002 RMK A01 T01920149  RH  076%=      5-min Rain = 0
KAM2 241652Z 30003KT 19/15 A3002 RMK A01 T01920148  RH  075%=      5-min Rain = 0
KAM2 241653Z 23003KT 19/15 A3002 RMK A01 T01920145  RH  074%=      5-min Rain = 0
KAM2 241654Z 27004KT 19/15 A3002 RMK A01 T01920148  RH  076%=      5-min Rain = 0
KAM2 241655Z 28007KT 19/15 A3002 RMK A01 T01930152  RH  077%=      5-min Rain = 0
KAM2 241656Z 29006KT 19/15 A3002 RMK A01 T01940149  RH  075%=      5-min Rain = 0
KAM2 241657Z 29007KT 19/15 A3002 RMK A01 T01930146  RH  074%=      5-min Rain = 0
KAM2 241658Z 29006KT 19/15 A3002 RMK A01 T01920147  RH  075%=      5-min Rain = 0
KAM2 241659Z 30004KT 19/14 A3002 RMK A01 T01910144  RH  074%=      5-min Rain = 0
KAM2 241700Z 31004KT 19/15 A3002 RMK A01 T01900148  RH  077%=      5-min Rain = 0
KAM2 241701Z 25003KT 19/15 A3002 RMK A01 T01920150  RH  077%=      5-min Rain = 0
KAM2 241702Z 24003KT 19/15 A3002 RMK A01 T01940146  RH  074%=      5-min Rain = 0
KAM2 241703Z 30002KT 19/15 A3002 RMK A01 T01940145  RH  073%=      5-min Rain = 0
KAM2 241704Z 30001KT 19/15 A3002 RMK A01 T01930146  RH  074%=      5-min Rain = 0
KAM2 241705Z 28004KT 19/15 A3002 RMK A01 T01940153  RH  077%=      5-min Rain = 0
KAM2 241706Z 28006KT 20/15 A3002 RMK A01 T01950148  RH  074%=      5-min Rain = 0
KAM2 241707Z 27005KT 19/15 A3002 RMK A01 T01940146  RH  074%=      5-min Rain = 0
KAM2 241708Z 26006KT 19/15 A3002 RMK A01 T01940151  RH  076%=      5-min Rain = 0
KAM2 241709Z 27004KT 20/15 A3002 RMK A01 T01950148  RH  074%=      5-min Rain = 0
KAM2 241710Z 29003KT 20/15 A3002 RMK A01 T01950151  RH  075%=      5-min Rain = 0
KAM2 241711Z 30005KT 20/15 A3002 RMK A01 T01960148  RH  073%=      5-min Rain = 0
KAM2 241712Z 33004KT 20/14 A3002 RMK A01 T01950142  RH  071%=      5-min Rain = 0
KAM2 241713Z 32004KT 19/15 A3002 RMK A01 T01940146  RH  074%=      5-min Rain = 0
KAM2 241714Z 29006KT 19/15 A3002 RMK A01 T01940145  RH  073%=      5-min Rain = 0
KAM2 241715Z 32006KT 19/15 A3002 RMK A01 T01940147  RH  074%=      5-min Rain = 0
KAM2 241716Z 29004KT 19/15 A3001 RMK A01 T01930149  RH  075%=      5-min Rain = 0
KAM2 241717Z 29005KT 19/14 A3001 RMK A01 T01940144  RH  073%=      5-min Rain = 0
KAM2 241718Z 30006KT 19/15 A3001 RMK A01 T01930145  RH  074%=      5-min Rain = 0
KAM2 241719Z 31005KT 19/15 A3001 RMK A01 T01940150  RH  076%=      5-min Rain = 0
KAM2 241720Z 29003KT 19/15 A3001 RMK A01 T01940145  RH  073%=      5-min Rain = 0
KAM2 241721Z 29005KT 19/15 A3001 RMK A01 T01940151  RH  076%=      5-min Rain = 0
KAM2 241722Z 31006KT 20/15 A3001 RMK A01 T01950147  RH  074%=      5-min Rain = 0
KAM2 241723Z 30005KT 19/14 A3001 RMK A01 T01940144  RH  073%=      5-min Rain = 0
KAM2 241724Z 30007KT 19/15 A3001 RMK A01 T01930148  RH  075%=      5-min Rain = 0
KAM2 241725Z 32005KT 20/15 A3001 RMK A01 T01950149  RH  075%=      5-min Rain = 0
KAM2 241726Z 33005KT 20/15 A3001 RMK A01 T01960150  RH  075%=      5-min Rain = 0
KAM2 241727Z 32003KT 20/15 A3001 RMK A01 T01970154  RH  076%=      5-min Rain = 0
KAM2 241728Z 31002KT 20/15 A3001 RMK A01 T01980146  RH  072%=      5-min Rain = 0
KAM2 241729Z 33000KT 20/14 A3001 RMK A01 T01960142  RH  071%=      5-min Rain = 0
KAM2 241730Z 22001KT 20/14 A3001 RMK A01 T01950143  RH  072%=      5-min Rain = 0
KAM2 241731Z 17001KT 20/15 A3001 RMK A01 T01950149  RH  074%=      5-min Rain = 0
KAM2 241732Z 20001KT 20/15 A3001 RMK A01 T01970148  RH  073%=      5-min Rain = 0
KAM2 241733Z 30002KT 20/15 A3001 RMK A01 T01980149  RH  073%=      5-min Rain = 0
KAM2 241734Z 31006KT 20/15 A3001 RMK A01 T02000151  RH  074%=      5-min Rain = 0
KAM2 241735Z 30005KT 20/15 A3001 RMK A01 T01990147  RH  072%=      5-min Rain = 0
KAM2 241736Z 28004KT 20/15 A3001 RMK A01 T01980149  RH  073%=      5-min Rain = 0
KAM2 241737Z 29004KT 20/15 A3001 RMK A01 T01990154  RH  075%=      5-min Rain = 0
KAM2 241738Z 30006KT 20/15 A3001 RMK A01 T02000152  RH  074%=      5-min Rain = 0
KAM2 241739Z 28004KT 20/16 A3001 RMK A01 T02020158  RH  076%=      5-min Rain = 0
KAM2 241740Z 27005KT 21/16 A3001 RMK A01 T02050161  RH  076%=      5-min Rain = 0
KAM2 241741Z 23004KT 21/16 A3001 RMK A01 T02070155  RH  072%=      5-min Rain = 0
KAM2 241742Z 29005KT 21/15 A3001 RMK A01 T02060151  RH  071%=      5-min Rain = 0
KAM2 241743Z 28005KT 21/15 A3001 RMK A01 T02050151  RH  071%=      5-min Rain = 0
KAM2 241744Z 34003KT 20/15 A3001 RMK A01 T02030151  RH  072%=      5-min Rain = 0
KAM2 241745Z 34004KT 20/15 A3001 RMK A01 T02020152  RH  073%=      5-min Rain = 0
KAM2 241746Z 32004KT 20/15 A3001 RMK A01 T02030152  RH  073%=      5-min Rain = 0
KAM2 241747Z 30003KT 20/15 A3001 RMK A01 T02030153  RH  073%=      5-min Rain = 0
KAM2 241748Z 25003KT 21/16 A3001 RMK A01 T02050156  RH  074%=      5-min Rain = 0
KAM2 241749Z 23002KT 21/15 A3001 RMK A01 T02060149  RH  070%=      5-min Rain = 0
KAM2 241750Z 21003KT 21/15 A3001 RMK A01 T02060149  RH  070%=      5-min Rain = 0
KAM2 241751Z 29004G9KT 21/16 A3001 RMK A01 T02050156  RH  073%=      5-min Rain = 0
KAM2 241752Z 35005KT 21/16 A3001 RMK A01 T02060158  RH  074%=      5-min Rain = 0
KAM2 241753Z 34005KT 21/16 A3001 RMK A01 T02070161  RH  075%=      5-min Rain = 0
KAM2 241754Z 33004KT 21/16 A3001 RMK A01 T02070155  RH  072%=      5-min Rain = 0
KAM2 241755Z 29004KT 21/15 A3001 RMK A01 T02060150  RH  070%=      5-min Rain = 0
KAM2 241756Z 27005KT 20/15 A3001 RMK A01 T02040153  RH  072%=      5-min Rain = 0
KAM2 241757Z 25005KT 20/15 A3001 RMK A01 T02040153  RH  073%=      5-min Rain = 0
KAM2 241758Z 26005KT 20/15 A3001 RMK A01 T02030149  RH  071%=      5-min Rain = 0
KAM2 241759Z 28004KT 20/15 A3001 RMK A01 T02010150  RH  072%=      5-min Rain = 0
KAM2 241800Z 27003KT 20/15 A3001 RMK A01 T02020152  RH  073%=      5-min Rain = 0
KAM2 241801Z 28001KT 20/15 A30 RMK A01 T02030153  RH  073%=      5-min Rain = 0
KAM2 241802Z 23002KT 21/16 A30 RMK A01 T02050156  RH  073%=      5-min Rain = 0
KAM2 241803Z 24003KT 21/15 A30 RMK A01 T02070154  RH  072%=      5-min Rain = 0
KAM2 241804Z 24002KT 21/15 A30 RMK A01 T02070152  RH  071%=      5-min Rain = 0
KAM2 241805Z 24001KT 21/15 A30 RMK A01 T02070153  RH  071%=      5-min Rain = 0
KAM2 241806Z 21001KT 21/15 A30 RMK A01 T02070148  RH  069%=      5-min Rain = 0
KAM2 241807Z 21003KT 21/16 A30 RMK A01 T02080155  RH  072%=      5-min Rain = 0
KAM2 241808Z 21003KT 21/15 A30 RMK A01 T02090153  RH  070%=      5-min Rain = 0
KAM2 241809Z 20002KT 21/16 A30 RMK A01 T02100155  RH  071%=      5-min Rain = 0
KAM2 241810Z 21002KT 21/16 A30 RMK A01 T02110155  RH  070%=      5-min Rain = 0
KAM2 241811Z 21004KT 21/16 A30 RMK A01 T02120160  RH  072%=      5-min Rain = 0
KAM2 241812Z 22003KT 21/16 A30 RMK A01 T02130157  RH  070%=      5-min Rain = 0
KAM2 241813Z 23003KT 21/16 A30 RMK A01 T02130155  RH  069%=      5-min Rain = 0
KAM2 241814Z 22002KT 21/15 A30 RMK A01 T02130150  RH  067%=      5-min Rain = 0
KAM2 241815Z 23003KT 21/16 A30 RMK A01 T02110155  RH  071%=      5-min Rain = 0
KAM2 241816Z 21001KT 21/15 A30 RMK A01 T02110153  RH  069%=      5-min Rain = 0
KAM2 241817Z 14003KT 21/16 A30 RMK A01 T02110162  RH  074%=      5-min Rain = 0
KAM2 241818Z 14003KT 21/16 A30 RMK A01 T02130155  RH  069%=      5-min Rain = 0
KAM2 241819Z 14003KT 21/16 A30 RMK A01 T02140158  RH  071%=      5-min Rain = 0
KAM2 241820Z 15002KT 22/16 A30 RMK A01 T02150156  RH  069%=      5-min Rain = 0
KAM2 241821Z 19005KT 22/16 A30 RMK A01 T02160162  RH  071%=      5-min Rain = 0
KAM2 241822Z 22007KT 22/16 A30 RMK A01 T02180161  RH  070%=      5-min Rain = 0
KAM2 241823Z 22004KT 22/15 A30 RMK A01 T02180154  RH  067%=      5-min Rain = 0
KAM2 241824Z 17005KT 22/16 A30 RMK A01 T02170155  RH  068%=      5-min Rain = 0
KAM2 241825Z 17003KT 22/16 A30 RMK A01 T02160155  RH  069%=      5-min Rain = 0
KAM2 241826Z 19002KT 22/16 A30 RMK A01 T02160160  RH  071%=      5-min Rain = 0
KAM2 241827Z 16001KT 22/16 A2999 RMK A01 T02160158  RH  069%=      5-min Rain = 0
KAM2 241828Z 18003KT 22/16 A2999 RMK A01 T02170160  RH  070%=      5-min Rain = 0
KAM2 241829Z 20004G9KT 22/16 A2999 RMK A01 T02180158  RH  069%=      5-min Rain = 0
KAM2 241830Z 20007KT 22/17 A2999 RMK A01 T02190166  RH  072%=      5-min Rain = 0
KAM2 241831Z 19007KT 22/16 A2999 RMK A01 T02220162  RH  069%=      5-min Rain = 0
KAM2 241832Z 17006KT 22/16 A2999 RMK A01 T02230157  RH  066%=      5-min Rain = 0
KAM2 241833Z 18005KT 22/16 A2999 RMK A01 T02210160  RH  068%=      5-min Rain = 0
KAM2 241834Z 18006KT 22/16 A2999 RMK A01 T02200157  RH  067%=      5-min Rain = 0
KAM2 241835Z 19005KT 22/16 A30 RMK A01 T02190158  RH  068%=      5-min Rain = 0
KAM2 241836Z 20004KT 22/16 A30 RMK A01 T02190158  RH  068%=      5-min Rain = 0
KAM2 241837Z 17003KT 22/16 A2999 RMK A01 T02190156  RH  068%=      5-min Rain = 0
KAM2 241838Z 20002KT 22/16 A2999 RMK A01 T02180159  RH  069%=      5-min Rain = 0
KAM2 241839Z 25001KT 22/16 A2999 RMK A01 T02170161  RH  070%=      5-min Rain = 0
KAM2 241840Z 19003KT 22/16 A2999 RMK A01 T02170158  RH  069%=      5-min Rain = 0
KAM2 241841Z 21001KT 22/16 A2999 RMK A01 T02170160  RH  070%=      5-min Rain = 0
KAM2 241842Z 18004KT 22/16 A2999 RMK A01 T02190163  RH  071%=      5-min Rain = 0
KAM2 241843Z 20005KT 22/16 A2999 RMK A01 T02220163  RH  070%=      5-min Rain = 0
KAM2 241844Z 19005KT 22/16 A2999 RMK A01 T02220159  RH  067%=      5-min Rain = 0
KAM2 241845Z 23004KT 22/16 A2999 RMK A01 T02210160  RH  068%=      5-min Rain = 0
KAM2 241846Z 23004KT 22/16 A2999 RMK A01 T02200159  RH  068%=      5-min Rain = 0
KAM2 241847Z 20003KT 22/16 A2999 RMK A01 T02190157  RH  068%=      5-min Rain = 0
KAM2 241848Z 17003KT 22/16 A2999 RMK A01 T02180158  RH  068%=      5-min Rain = 0
KAM2 241849Z 20005KT 22/16 A2999 RMK A01 T02190163  RH  070%=      5-min Rain = 0
KAM2 241850Z 22005KT 22/16 A2999 RMK A01 T02200160  RH  068%=      5-min Rain = 0
KAM2 241851Z 23005KT 22/16 A2999 RMK A01 T02210158  RH  068%=      5-min Rain = 0
KAM2 241852Z 22007KT 22/16 A2999 RMK A01 T02200159  RH  068%=      5-min Rain = 0
KAM2 241853Z 22006KT 22/16 A2999 RMK A01 T02210159  RH  068%=      5-min Rain = 0
KAM2 241854Z 22006KT 22/16 A2998 RMK A01 T02200160  RH  068%=      5-min Rain = 0
KAM2 241855Z 20006KT 22/16 A2998 RMK A01 T02200158  RH  068%=      5-min Rain = 0
KAM2 241856Z 23006KT 22/16 A2998 RMK A01 T02210163  RH  069%=      5-min Rain = 0
KAM2 241857Z 22005KT 22/16 A2998 RMK A01 T02240161  RH  068%=      5-min Rain = 0
KAM2 241858Z 25005KT 22/17 A2998 RMK A01 T02240168  RH  071%=      5-min Rain = 0
KAM2 241859Z 23005KT 23/16 A2998 RMK A01 T02260163  RH  068%=      5-min Rain = 0
KAM2 241900Z 24005KT 23/16 A2998 RMK A01 T02270163  RH  067%=      5-min Rain = 0
KAM2 241901Z 23005KT 23/17 A2998 RMK A01 T02270165  RH  068%=      5-min Rain = 0
KAM2 241902Z 21007KT 23/17 A2998 RMK A01 T02280168  RH  069%=      5-min Rain = 0
KAM2 241903Z 21006KT 23/16 A2998 RMK A01 T02300163  RH  066%=      5-min Rain = 0
KAM2 241904Z 23004KT 23/16 A2998 RMK A01 T02290157  RH  064%=      5-min Rain = 0
KAM2 241905Z 25003KT 23/16 A2998 RMK A01 T02250155  RH  065%=      5-min Rain = 0
KAM2 241906Z 26003KT 22/17 A2998 RMK A01 T02230165  RH  069%=      5-min Rain = 0
KAM2 241907Z 23002KT 23/17 A2997 RMK A01 T02250171  RH  072%=      5-min Rain = 0
KAM2 241908Z 19002KT 23/17 A2997 RMK A01 T02290170  RH  069%=      5-min Rain = 0
KAM2 241909Z 21003KT 23/16 A2997 RMK A01 T02310164  RH  066%=      5-min Rain = 0
KAM2 241910Z 17001KT 23/16 A2997 RMK A01 T02310163  RH  065%=      5-min Rain = 0
KAM2 241911Z 17004KT 23/17 A2997 RMK A01 T02310168  RH  068%=      5-min Rain = 0
KAM2 241912Z 19005KT 23/17 A2997 RMK A01 T02310169  RH  068%=      5-min Rain = 0
KAM2 241913Z 20003KT 23/16 A2997 RMK A01 T02320163  RH  065%=      5-min Rain = 0
KAM2 241914Z 18003KT 23/17 A2997 RMK A01 T02310165  RH  066%=      5-min Rain = 0
KAM2 241915Z 19004KT 23/17 A2997 RMK A01 T02310168  RH  068%=      5-min Rain = 0
KAM2 241916Z 22004KT 23/16 A2997 RMK A01 T02310161  RH  065%=      5-min Rain = 0
KAM2 241917Z 26002KT 23/16 A2997 RMK A01 T02290159  RH  065%=      5-min Rain = 0
KAM2 241918Z 20001KT 23/17 A2997 RMK A01 T02280165  RH  067%=      5-min Rain = 0
KAM2 241919Z 36000KT 23/17 A2997 RMK A01 T02300166  RH  067%=      5-min Rain = 0
KAM2 241920Z 35002KT 23/17 A2997 RMK A01 T02320167  RH  067%=      5-min Rain = 0
KAM2 241921Z 01001KT 23/18 A2997 RMK A01 T02340176  RH  070%=      5-min Rain = 0
KAM2 241922Z 19001KT 24/17 A2997 RMK A01 T02360167  RH  065%=      5-min Rain = 0
KAM2 241923Z 24002KT 24/17 A2997 RMK A01 T02370169  RH  065%=      5-min Rain = 0
KAM2 241924Z 26001KT 24/17 A2997 RMK A01 T02380165  RH  064%=      5-min Rain = 0
KAM2 241925Z 30003G8KT 24/17 A2996 RMK A01 T02380174  RH  067%=      5-min Rain = 0
KAM2 241926Z 26005KT 24/17 A2996 RMK A01 T02400174  RH  067%=      5-min Rain = 0
KAM2 241927Z 21006KT 24/17 A2996 RMK A01 T02400171  RH  066%=      5-min Rain = 0
KAM2 241928Z 16005KT 24/17 A2997 RMK A01 T02400168  RH  064%=      5-min Rain = 0
KAM2 241929Z 17004KT 24/17 A2997 RMK A01 T02400171  RH  065%=      5-min Rain = 0
KAM2 241930Z 16003KT 24/17 A2997 RMK A01 T02400172  RH  065%=      5-min Rain = 0
KAM2 241931Z 16004KT 24/17 A2996 RMK A01 T02420173  RH  065%=      5-min Rain = 0
KAM2 241932Z 24005KT 24/17 A2996 RMK A01 T02420170  RH  064%=      5-min Rain = 0
KAM2 241933Z 22005KT 24/17 A2997 RMK A01 T02400167  RH  063%=      5-min Rain = 0
KAM2 241934Z 23004KT 24/17 A2997 RMK A01 T02380166  RH  064%=      5-min Rain = 0
KAM2 241935Z 24004KT 24/17 A2997 RMK A01 T02380171  RH  066%=      5-min Rain = 0
KAM2 241936Z 24005KT 24/17 A2997 RMK A01 T02390168  RH  064%=      5-min Rain = 0
KAM2 241937Z 24004KT 24/16 A2997 RMK A01 T02380164  RH  063%=      5-min Rain = 0
KAM2 241938Z 23002KT 24/17 A2996 RMK A01 T02370167  RH  065%=      5-min Rain = 0
KAM2 241939Z 23004KT 24/17 A2996 RMK A01 T02370165  RH  064%=      5-min Rain = 0
KAM2 241940Z 21005KT 24/17 A2996 RMK A01 T02370167  RH  065%=      5-min Rain = 0
KAM2 241941Z 22005KT 24/17 A2996 RMK A01 T02370169  RH  066%=      5-min Rain = 0
KAM2 241942Z 21005KT 24/17 A2996 RMK A01 T02380166  RH  064%=      5-min Rain = 0
KAM2 241943Z 20005KT 24/16 A2996 RMK A01 T02380163  RH  063%=      5-min Rain = 0
KAM2 241944Z 22006KT 24/17 A2996 RMK A01 T02360167  RH  065%=      5-min Rain = 0
KAM2 241945Z 24006KT 24/17 A2996 RMK A01 T02360165  RH  065%=      5-min Rain = 0
KAM2 241946Z 25006KT 24/17 A2996 RMK A01 T02350167  RH  066%=      5-min Rain = 0
KAM2 241947Z 24005KT 24/17 A2996 RMK A01 T02350167  RH  066%=      5-min Rain = 0
KAM2 241948Z 22006KT 24/17 A2996 RMK A01 T02370172  RH  067%=      5-min Rain = 0
KAM2 241949Z 21006KT 24/17 A2996 RMK A01 T02380167  RH  064%=      5-min Rain = 0
KAM2 241950Z 19004KT 24/17 A2996 RMK A01 T02380166  RH  064%=      5-min Rain = 0
KAM2 241951Z 20005KT 24/17 A2996 RMK A01 T02380165  RH  064%=      5-min Rain = 0
KAM2 241952Z 21004KT 24/16 A2996 RMK A01 T02370163  RH  063%=      5-min Rain = 0
KAM2 241953Z 16001KT 24/16 A2996 RMK A01 T02360163  RH  064%=      5-min Rain = 0
KAM2 241954Z 14003KT 24/17 A2996 RMK A01 T02350166  RH  065%=      5-min Rain = 0
KAM2 241955Z 13003KT 24/17 A2996 RMK A01 T02360165  RH  064%=      5-min Rain = 0
KAM2 241956Z 13002KT 24/17 A2996 RMK A01 T02370172  RH  067%=      5-min Rain = 0
KAM2 241957Z 13003KT 24/17 A2996 RMK A01 T02400171  RH  066%=      5-min Rain = 0
KAM2 241958Z 18002KT 24/17 A2996 RMK A01 T02420173  RH  065%=      5-min Rain = 0
KAM2 241959Z 19004KT 24/17 A2996 RMK A01 T02440169  RH  063%=      5-min Rain = 0
KAM2 242000Z 19003KT 25/17 A2995 RMK A01 T02450166  RH  061%=      5-min Rain = 0
KAM2 242001Z 15005KT 24/17 A2995 RMK A01 T02430165  RH  062%=      5-min Rain = 0
KAM2 242002Z 15004KT 24/17 A2995 RMK A01 T02420165  RH  062%=      5-min Rain = 0
KAM2 242003Z 15005KT 24/16 A2995 RMK A01 T02420163  RH  061%=      5-min Rain = 0
KAM2 242004Z 13002KT 24/17 A2995 RMK A01 T02420165  RH  062%=      5-min Rain = 0
KAM2 242005Z 18003KT 24/17 A2995 RMK A01 T02420173  RH  065%=      5-min Rain = 0
KAM2 242006Z 16002KT 24/17 A2995 RMK A01 T02440165  RH  061%=      5-min Rain = 0
KAM2 242007Z 15003KT 25/17 A2995 RMK A01 T02450168  RH  062%=      5-min Rain = 0
KAM2 242008Z 17004KT 25/17 A2995 RMK A01 T02450168  RH  062%=      5-min Rain = 0
KAM2 242009Z 16004KT 25/17 A2995 RMK A01 T02460169  RH  062%=      5-min Rain = 0
KAM2 242010Z 15005KT 25/17 A2995 RMK A01 T02470172  RH  063%=      5-min Rain = 0
KAM2 242011Z 14003KT 25/17 A2995 RMK A01 T02480166  RH  060%=      5-min Rain = 0
KAM2 242012Z 21000KT 25/16 A2994 RMK A01 T02460164  RH  060%=      5-min Rain = 0
KAM2 242013Z 25001KT 25/17 A2994 RMK A01 T02450166  RH  061%=      5-min Rain = 0
KAM2 242014Z 19001KT 25/17 A2994 RMK A01 T02460167  RH  062%=      5-min Rain = 0
KAM2 242015Z 21000KT 25/17 A2994 RMK A01 T02480173  RH  063%=      5-min Rain = 0
KAM2 242016Z 15001KT 25/18 A2994 RMK A01 T02510177  RH  063%=      5-min Rain = 0
KAM2 242017Z 08002KT 25/18 A2994 RMK A01 T02540176  RH  062%=      5-min Rain = 0
KAM2 242018Z 11002KT 26/18 A2994 RMK A01 T02560176  RH  061%=      5-min Rain = 0
KAM2 242019Z 09003KT 26/17 A2994 RMK A01 T02570168  RH  058%=      5-min Rain = 0
KAM2 242020Z 21003KT 26/18 A2994 RMK A01 T02560175  RH  061%=      5-min Rain = 0
KAM2 242021Z 21004KT 26/17 A2994 RMK A01 T02550166  RH  058%=      5-min Rain = 0
KAM2 242022Z 21004KT 25/17 A2994 RMK A01 T02530169  RH  060%=      5-min Rain = 0
KAM2 242023Z 19004KT 25/17 A2994 RMK A01 T02530166  RH  059%=      5-min Rain = 0
KAM2 242024Z 13003KT 25/16 A2993 RMK A01 T02530164  RH  058%=      5-min Rain = 0
KAM2 242025Z 08003KT 25/17 A2993 RMK A01 T02520166  RH  059%=      5-min Rain = 0
KAM2 242026Z 11001KT 25/17 A2993 RMK A01 T02530168  RH  060%=      5-min Rain = 0
KAM2 242027Z 22001KT 26/16 A2993 RMK A01 T02550163  RH  057%=      5-min Rain = 0
KAM2 242028Z 21002KT 26/16 A2993 RMK A01 T02550161  RH  056%=      5-min Rain = 0
KAM2 242029Z 24001KT 26/17 A2993 RMK A01 T02560168  RH  058%=      5-min Rain = 0
KAM2 242030Z 22003KT 26/17 A2993 RMK A01 T02580170  RH  058%=      5-min Rain = 0
KAM2 242031Z 25003KT 26/17 A2993 RMK A01 T02600174  RH  059%=      5-min Rain = 0
KAM2 242032Z 25003KT 26/17 A2993 RMK A01 T02610174  RH  059%=      5-min Rain = 0
KAM2 242033Z 20002KT 26/17 A2993 RMK A01 T02610167  RH  056%=      5-min Rain = 0
KAM2 242034Z 12005KT 26/17 A2993 RMK A01 T02610169  RH  057%=      5-min Rain = 0
KAM2 242035Z 07002KT 26/16 A2993 RMK A01 T02600161  RH  055%=      5-min Rain = 0
KAM2 242036Z 01000KT 26/17 A2993 RMK A01 T02590167  RH  057%=      5-min Rain = 0
KAM2 242037Z 14005KT 26/17 A2993 RMK A01 T02590167  RH  057%=      5-min Rain = 0
KAM2 242038Z 12006KT 26/17 A2993 RMK A01 T02600165  RH  056%=      5-min Rain = 0
KAM2 242039Z 10004KT 26/16 A2993 RMK A01 T02590160  RH  054%=      5-min Rain = 0
KAM2 242040Z 09003KT 26/16 A2993 RMK A01 T02560162  RH  056%=      5-min Rain = 0
KAM2 242041Z 08002KT 26/16 A2992 RMK A01 T02550163  RH  057%=      5-min Rain = 0
KAM2 242042Z 02001KT 26/17 A2992 RMK A01 T02560170  RH  059%=      5-min Rain = 0
KAM2 242043Z 15001KT 26/17 A2992 RMK A01 T02590174  RH  059%=      5-min Rain = 0
KAM2 242044Z 15002KT 26/17 A2992 RMK A01 T02620170  RH  057%=      5-min Rain = 0
KAM2 242045Z 19004KT 27/17 A2992 RMK A01 T02650167  RH  055%=      5-min Rain = 0
KAM2 242046Z 19004KT 27/17 A2992 RMK A01 T02660169  RH  055%=      5-min Rain = 0
KAM2 242047Z 21004KT 27/16 A2992 RMK A01 T02660163  RH  053%=      5-min Rain = 0
KAM2 242048Z 21003KT 26/16 A2992 RMK A01 T02640162  RH  054%=      5-min Rain = 0
KAM2 242049Z 16000KT 26/16 A2992 RMK A01 T02630163  RH  054%=      5-min Rain = 0
KAM2 242050Z 32000KT 26/16 A2992 RMK A01 T02620158  RH  053%=      5-min Rain = 0
KAM2 242051Z 05000KT 26/16 A2992 RMK A01 T02630162  RH  054%=      5-min Rain = 0
KAM2 242052Z 12001KT 26/17 A2992 RMK A01 T02630165  RH  055%=      5-min Rain = 0
KAM2 242053Z 14005KT 27/17 A2992 RMK A01 T02650170  RH  056%=      5-min Rain = 0
KAM2 242054Z 13006KT 27/18 A2992 RMK A01 T02680175  RH  057%=      5-min Rain = 0
KAM2 242055Z 11006KT 27/17 A2992 RMK A01 T02700173  RH  055%=      5-min Rain = 0
KAM2 242056Z 12005KT 27/17 A2992 RMK A01 T02710167  RH  053%=      5-min Rain = 0
KAM2 242057Z 14005KT 27/17 A2992 RMK A01 T02690170  RH  055%=      5-min Rain = 0
KAM2 242058Z 18005KT 27/16 A2991 RMK A01 T02690162  RH  052%=      5-min Rain = 0
KAM2 242059Z 18005KT 27/17 A2991 RMK A01 T02700165  RH  053%=      5-min Rain = 0
KAM2 242100Z 16006KT 27/16 A2991 RMK A01 T02710159  RH  050%=      5-min Rain = 0
KAM2 242101Z 17006KT 27/16 A2991 RMK A01 T02710160  RH  051%=      5-min Rain = 0
KAM2 242102Z 20006KT 27/17 A2991 RMK A01 T02710166  RH  053%=      5-min Rain = 0
KAM2 242103Z 22007KT 27/16 A2991 RMK A01 T02710159  RH  051%=      5-min Rain = 0
KAM2 242104Z 22005KT 27/16 A2991 RMK A01 T02700162  RH  051%=      5-min Rain = 0
KAM2 242105Z 23005KT 27/16 A2991 RMK A01 T02700163  RH  052%=      5-min Rain = 0
KAM2 242106Z 21006KT 27/16 A2991 RMK A01 T02700160  RH  051%=      5-min Rain = 0
KAM2 242107Z 18004KT 27/16 A2991 RMK A01 T02690162  RH  052%=      5-min Rain = 0
KAM2 242108Z 17005KT 27/16 A2991 RMK A01 T02690159  RH  051%=      5-min Rain = 0
KAM2 242109Z 18005KT 27/16 A2991 RMK A01 T02700160  RH  051%=      5-min Rain = 0
KAM2 242110Z 15004KT 27/16 A2991 RMK A01 T02700159  RH  051%=      5-min Rain = 0
KAM2 242111Z 17006KT 27/16 A2991 RMK A01 T02700158  RH  050%=      5-min Rain = 0
KAM2 242112Z 15005KT 27/15 A2991 RMK A01 T02700154  RH  049%=      5-min Rain = 0
KAM2 242113Z 15005KT 27/16 A2991 RMK A01 T02690157  RH  050%=      5-min Rain = 0
KAM2 242114Z 16005KT 27/16 A2991 RMK A01 T02690162  RH  052%=      5-min Rain = 0
KAM2 242115Z 16005KT 27/16 A2991 RMK A01 T02700162  RH  052%=      5-min Rain = 0
KAM2 242116Z 17003KT 27/16 A2991 RMK A01 T02700156  RH  050%=      5-min Rain = 0
KAM2 242117Z 18003KT 27/16 A299 RMK A01 T02690155  RH  050%=      5-min Rain = 0
KAM2 242118Z 17002KT 27/16 A299 RMK A01 T02670155  RH  050%=      5-min Rain = 0
KAM2 242119Z 15005KT 27/16 A299 RMK A01 T02660159  RH  052%=      5-min Rain = 0
KAM2 242120Z 15005KT 27/16 A299 RMK A01 T02660159  RH  052%=      5-min Rain = 0
KAM2 242121Z 17006KT 27/16 A299 RMK A01 T02650158  RH  052%=      5-min Rain = 0
KAM2 242122Z 16005KT 27/15 A299 RMK A01 T02650154  RH  051%=      5-min Rain = 0
KAM2 242123Z 18004KT 26/16 A299 RMK A01 T02640158  RH  052%=      5-min Rain = 0
KAM2 242124Z 21003KT 26/15 A299 RMK A01 T02640150  RH  049%=      5-min Rain = 0
KAM2 242125Z 20002KT 26/15 A299 RMK A01 T02640153  RH  051%=      5-min Rain = 0
KAM2 242126Z 17003KT 26/15 A2989 RMK A01 T02640150  RH  050%=      5-min Rain = 0
KAM2 242127Z 18005KT 26/15 A2989 RMK A01 T02640151  RH  050%=      5-min Rain = 0
KAM2 242128Z 19003KT 26/14 A2989 RMK A01 T02630143  RH  047%=      5-min Rain = 0
KAM2 242129Z 21003KT 26/15 A2989 RMK A01 T02630145  RH  048%=      5-min Rain = 0
KAM2 242130Z 20003KT 26/15 A299 RMK A01 T02630148  RH  049%=      5-min Rain = 0
KAM2 242131Z 18003KT 26/15 A299 RMK A01 T02630150  RH  050%=      5-min Rain = 0
KAM2 242132Z 17003KT 26/16 A299 RMK A01 T02640156  RH  051%=      5-min Rain = 0
KAM2 242133Z 15005KT 26/15 A299 RMK A01 T02640153  RH  050%=      5-min Rain = 0
KAM2 242134Z 16006KT 27/16 A299 RMK A01 T02650155  RH  051%=      5-min Rain = 0
KAM2 242135Z 15004KT 27/15 A299 RMK A01 T02660150  RH  049%=      5-min Rain = 0
KAM2 242136Z 13004KT 27/16 A299 RMK A01 T02660157  RH  051%=      5-min Rain = 0
KAM2 242137Z 16008KT 27/16 A2989 RMK A01 T02680161  RH  052%=      5-min Rain = 0
KAM2 242138Z 18005KT 27/14 A2989 RMK A01 T02690140  RH  045%=      5-min Rain = 0
KAM2 242139Z 16005KT 27/15 A2989 RMK A01 T02700145  RH  046%=      5-min Rain = 0
KAM2 242140Z 16005KT 27/15 A2989 RMK A01 T02710152  RH  048%=      5-min Rain = 0
KAM2 242141Z 15005KT 27/16 A2989 RMK A01 T02720156  RH  049%=      5-min Rain = 0
KAM2 242142Z 15008KT 27/17 A2989 RMK A01 T02740169  RH  053%=      5-min Rain = 0
KAM2 242143Z 15009KT 27/17 A2989 RMK A01 T02730169  RH  053%=      5-min Rain = 0
KAM2 242144Z 13008KT 27/17 A2989 RMK A01 T02720170  RH  054%=      5-min Rain = 0
KAM2 242145Z 11009KT 27/17 A2989 RMK A01 T02710166  RH  053%=      5-min Rain = 0
KAM2 242146Z 12010KT 27/17 A2989 RMK A01 T02690169  RH  054%=      5-min Rain = 0
KAM2 242147Z 13008KT 27/17 A2989 RMK A01 T02680169  RH  055%=      5-min Rain = 0
KAM2 242148Z 12007KT 27/17 A299 RMK A01 T02680170  RH  055%=      5-min Rain = 0
KAM2 242149Z 12010KT 27/17 A299 RMK A01 T02680169  RH  055%=      5-min Rain = 0
KAM2 242150Z 11011KT 27/17 A299 RMK A01 T02670174  RH  056%=      5-min Rain = 0
KAM2 242151Z 12012KT 27/17 A299 RMK A01 T02670174  RH  057%=      5-min Rain = 0
KAM2 242152Z 10013KT 27/18 A299 RMK A01 T02660175  RH  057%=      5-min Rain = 0
KAM2 242153Z 11015KT 26/18 A299 RMK A01 T02640177  RH  059%=      5-min Rain = 0
KAM2 242154Z 12014KT 26/18 A299 RMK A01 T02620177  RH  059%=      5-min Rain = 0
KAM2 242155Z 12019G25KT 26/19 A299 RMK A01 T02590188  RH  065%=      5-min Rain = 0
KAM2 242156Z 12023KT 25/19 A299 RMK A01 T02500192  RH  070%=      5-min Rain = 0
KAM2 242157Z 12023KT 24/19 A299 RMK A01 T02410191  RH  074%=      5-min Rain = 0
KAM2 242158Z 12022KT 24/19 A299 RMK A01 T02370191  RH  076%=      5-min Rain = 0
KAM2 242159Z 12016G21KT 24/19 A299 RMK A01 T02350192  RH  077%=      5-min Rain = 0
KAM2 242200Z 12013KT 23/19 A299 RMK A01 T02340194  RH  078%=      5-min Rain = 0
KAM2 242201Z 12014KT 24/20 A2989 RMK A01 T02360195  RH  078%=      5-min Rain = 0
KAM2 242202Z 12015KT 24/19 A2989 RMK A01 T02360193  RH  077%=      5-min Rain = 0
KAM2 242203Z 12018KT 24/19 A2989 RMK A01 T02360192  RH  076%=      5-min Rain = 0
KAM2 242204Z 12014KT 24/19 A2989 RMK A01 T02350192  RH  077%=      5-min Rain = 0
KAM2 242205Z 12015KT 24/19 A2989 RMK A01 T02360193  RH  077%=      5-min Rain = 0
KAM2 242206Z 12014KT 24/19 A2989 RMK A01 T02370193  RH  077%=      5-min Rain = 0
KAM2 242207Z 13015KT 24/19 A2989 RMK A01 T02370193  RH  076%=      5-min Rain = 0
KAM2 242208Z 12016KT 24/19 A2989 RMK A01 T02370192  RH  076%=      5-min Rain = 0
KAM2 242209Z 12014KT 24/19 A2989 RMK A01 T02360192  RH  076%=      5-min Rain = 0
KAM2 242210Z 12013G20KT 24/19 A2989 RMK A01 T02380194  RH  076%=      5-min Rain = 0
KAM2 242211Z 12016G21KT 24/19 A2989 RMK A01 T02400193  RH  075%=      5-min Rain = 0
KAM2 242212Z 12016KT 24/19 A2989 RMK A01 T02400192  RH  074%=      5-min Rain = 0
KAM2 242213Z 12018KT 24/19 A2989 RMK A01 T02410191  RH  074%=      5-min Rain = 0
KAM2 242214Z 11018KT 24/19 A2989 RMK A01 T02410190  RH  073%=      5-min Rain = 0
KAM2 242215Z 11016KT 24/19 A2989 RMK A01 T02390192  RH  075%=      5-min Rain = 0
KAM2 242216Z 12016KT 24/19 A2989 RMK A01 T02400192  RH  075%=      5-min Rain = 0
KAM2 242217Z 12016KT 24/19 A2989 RMK A01 T02400191  RH  074%=      5-min Rain = 0
KAM2 242218Z 13012KT 24/19 A2989 RMK A01 T02400193  RH  075%=      5-min Rain = 0
KAM2 242219Z 14014G19KT 24/19 A2989 RMK A01 T02430194  RH  074%=      5-min Rain = 0
KAM2 242220Z 13013KT 24/20 A2989 RMK A01 T02440195  RH  074%=      5-min Rain = 0
KAM2 242221Z 13014KT 25/20 A2989 RMK A01 T02460195  RH  073%=      5-min Rain = 0
KAM2 242222Z 12015KT 25/19 A2989 RMK A01 T02450191  RH  072%=      5-min Rain = 0
KAM2 242223Z 12017KT 24/19 A2988 RMK A01 T02430192  RH  073%=      5-min Rain = 0
KAM2 242224Z 12014KT 24/19 A2988 RMK A01 T02420191  RH  073%=      5-min Rain = 0
KAM2 242225Z 14016KT 24/19 A2988 RMK A01 T02420189  RH  072%=      5-min Rain = 0
KAM2 242226Z 13014KT 24/19 A2988 RMK A01 T02420190  RH  072%=      5-min Rain = 0
KAM2 242227Z 13016KT 24/19 A2988 RMK A01 T02420190  RH  072%=      5-min Rain = 0
KAM2 242228Z 13015KT 24/19 A2988 RMK A01 T02420188  RH  072%=      5-min Rain = 0
KAM2 242229Z 13013KT 24/19 A2988 RMK A01 T02410189  RH  073%=      5-min Rain = 0
KAM2 242230Z 13012KT 24/19 A2987 RMK A01 T02400189  RH  073%=      5-min Rain = 0
KAM2 242231Z 13013KT 24/19 A2987 RMK A01 T02400189  RH  073%=      5-min Rain = 0
KAM2 242232Z 13013KT 24/19 A2987 RMK A01 T02410191  RH  074%=      5-min Rain = 0
KAM2 242233Z 14015KT 24/19 A2987 RMK A01 T02430190  RH  072%=      5-min Rain = 0
KAM2 242234Z 13012KT 24/19 A2988 RMK A01 T02430189  RH  071%=      5-min Rain = 0
KAM2 242235Z 13011KT 24/19 A2988 RMK A01 T02430193  RH  074%=      5-min Rain = 0
KAM2 242236Z 14015KT 25/19 A2987 RMK A01 T02450192  RH  072%=      5-min Rain = 0
KAM2 242237Z 14013G18KT 25/19 A2987 RMK A01 T02450191  RH  072%=      5-min Rain = 0
KAM2 242238Z 13014KT 25/19 A2987 RMK A01 T02450192  RH  072%=      5-min Rain = 0
KAM2 242239Z 13013KT 25/19 A2987 RMK A01 T02450192  RH  072%=      5-min Rain = 0
KAM2 242240Z 12011KT 25/19 A2987 RMK A01 T02450191  RH  072%=      5-min Rain = 0
KAM2 242241Z 12014KT 25/19 A2987 RMK A01 T02450188  RH  070%=      5-min Rain = 0
KAM2 242242Z 12014KT 25/19 A2987 RMK A01 T02450188  RH  070%=      5-min Rain = 0
KAM2 242243Z 12014KT 25/19 A2987 RMK A01 T02450186  RH  070%=      5-min Rain = 0
KAM2 242244Z 13014KT 24/19 A2987 RMK A01 T02440186  RH  070%=      5-min Rain = 0
KAM2 242245Z 13014KT 24/19 A2987 RMK A01 T02440186  RH  070%=      5-min Rain = 0
KAM2 242246Z 14015KT 24/19 A2987 RMK A01 T02440186  RH  070%=      5-min Rain = 0
KAM2 242247Z 14014KT 24/19 A2987 RMK A01 T02440187  RH  071%=      5-min Rain = 0
KAM2 242248Z 13012KT 24/19 A2987 RMK A01 T02430189  RH  072%=      5-min Rain = 0
KAM2 242249Z 14012KT 24/19 A2987 RMK A01 T02440191  RH  072%=      5-min Rain = 0
KAM2 242250Z 14013KT 25/19 A2987 RMK A01 T02450192  RH  072%=      5-min Rain = 0
KAM2 242251Z 13011KT 25/19 A2987 RMK A01 T02460193  RH  072%=      5-min Rain = 0
KAM2 242252Z 14013KT 25/19 A2987 RMK A01 T02460191  RH  071%=      5-min Rain = 0
KAM2 242253Z 13013KT 25/19 A2987 RMK A01 T02450189  RH  071%=      5-min Rain = 0
KAM2 242254Z 14013KT 24/19 A2987 RMK A01 T02440189  RH  071%=      5-min Rain = 0
KAM2 242255Z 14012KT 25/19 A2987 RMK A01 T02450188  RH  071%=      5-min Rain = 0
KAM2 242256Z 14011KT 25/19 A2987 RMK A01 T02450189  RH  071%=      5-min Rain = 0
KAM2 242257Z 14013KT 25/19 A2987 RMK A01 T02470187  RH  069%=      5-min Rain = 0
KAM2 242258Z 13013KT 25/19 A2987 RMK A01 T02470188  RH  069%=      5-min Rain = 0
KAM2 242259Z 13013KT 25/19 A2987 RMK A01 T02470187  RH  069%=      5-min Rain = 0
KAM2 242300Z 15013KT 25/19 A2987 RMK A01 T02470187  RH  069%=      5-min Rain = 0
KAM2 242301Z 14012KT 25/19 A2988 RMK A01 T02470186  RH  069%=      5-min Rain = 0
KAM2 242302Z 14013KT 25/19 A2988 RMK A01 T02470188  RH  070%=      5-min Rain = 0
KAM2 242303Z 12014KT 25/19 A2988 RMK A01 T02460187  RH  069%=      5-min Rain = 0
KAM2 242304Z 13012KT 25/19 A2988 RMK A01 T02470185  RH  068%=      5-min Rain = 0
KAM2 242305Z 14013KT 25/18 A2988 RMK A01 T02460184  RH  068%=      5-min Rain = 0
KAM2 242306Z 13012KT 25/19 A2988 RMK A01 T02460186  RH  069%=      5-min Rain = 0
KAM2 242307Z 12013KT 25/19 A2988 RMK A01 T02460186  RH  069%=      5-min Rain = 0
KAM2 242308Z 13012KT 25/19 A2988 RMK A01 T02470187  RH  069%=      5-min Rain = 0
KAM2 242309Z 13012KT 25/19 A2988 RMK A01 T02470187  RH  069%=      5-min Rain = 0
KAM2 242310Z 13013KT 25/19 A2988 RMK A01 T02460188  RH  070%=      5-min Rain = 0
KAM2 242311Z 13013KT 25/19 A2987 RMK A01 T02470187  RH  069%=      5-min Rain = 0
KAM2 242312Z 14012KT 25/19 A2987 RMK A01 T02450188  RH  070%=      5-min Rain = 0
KAM2 242313Z 13012KT 25/19 A2987 RMK A01 T02450189  RH  071%=      5-min Rain = 0
KAM2 242314Z 13012KT 24/19 A2987 RMK A01 T02440187  RH  070%=      5-min Rain = 0
KAM2 242315Z 13012KT 24/19 A2987 RMK A01 T02440190  RH  072%=      5-min Rain = 0
KAM2 242316Z 14012KT 24/19 A2987 RMK A01 T02440189  RH  071%=      5-min Rain = 0
KAM2 242317Z 14011KT 24/19 A2986 RMK A01 T02440191  RH  072%=      5-min Rain = 0
KAM2 242318Z 14011KT 24/19 A2986 RMK A01 T02440188  RH  071%=      5-min Rain = 0
KAM2 242319Z 13011KT 24/19 A2986 RMK A01 T02440187  RH  071%=      5-min Rain = 0
KAM2 242320Z 13009KT 24/19 A2986 RMK A01 T02440189  RH  071%=      5-min Rain = 0
KAM2 242321Z 12010KT 24/19 A2986 RMK A01 T02440190  RH  072%=      5-min Rain = 0
KAM2 242322Z 13011KT 24/19 A2986 RMK A01 T02440191  RH  072%=      5-min Rain = 0
KAM2 242323Z 14009KT 24/19 A2986 RMK A01 T02430190  RH  072%=      5-min Rain = 0
KAM2 242324Z 14009KT 24/19 A2986 RMK A01 T02430190  RH  072%=      5-min Rain = 0
KAM2 242325Z 13008KT 24/19 A2986 RMK A01 T02440190  RH  072%=      5-min Rain = 0
KAM2 242326Z 14007KT 25/19 A2986 RMK A01 T02450194  RH  073%=      5-min Rain = 0
KAM2 242327Z 12008KT 25/19 A2986 RMK A01 T02470194  RH  072%=      5-min Rain = 0
KAM2 242328Z 13008KT 25/19 A2986 RMK A01 T02480189  RH  070%=      5-min Rain = 0
KAM2 242329Z 13008KT 25/19 A2986 RMK A01 T02480191  RH  070%=      5-min Rain = 0
KAM2 242330Z 13009KT 25/19 A2986 RMK A01 T02480192  RH  071%=      5-min Rain = 0
KAM2 242331Z 13008KT 25/19 A2986 RMK A01 T02470193  RH  072%=      5-min Rain = 0
KAM2 242332Z 13009KT 25/19 A2986 RMK A01 T02470192  RH  071%=      5-min Rain = 0
KAM2 242333Z 14009KT 25/19 A2986 RMK A01 T02470191  RH  071%=      5-min Rain = 0
KAM2 242334Z 13010KT 25/19 A2986 RMK A01 T02480189  RH  070%=      5-min Rain = 0
KAM2 242335Z 14008KT 25/19 A2986 RMK A01 T02480188  RH  069%=      5-min Rain = 0
KAM2 242336Z 15010KT 25/19 A2986 RMK A01 T02480188  RH  069%=      5-min Rain = 0
KAM2 242337Z 14009KT 25/19 A2986 RMK A01 T02480188  RH  069%=      5-min Rain = 0
KAM2 242338Z 14008KT 25/19 A2986 RMK A01 T02480187  RH  069%=      5-min Rain = 0
KAM2 242339Z 14009KT 25/19 A2986 RMK A01 T02470188  RH  069%=      5-min Rain = 0
KAM2 242340Z 13011KT 25/19 A2986 RMK A01 T02480187  RH  069%=      5-min Rain = 0
KAM2 242341Z 14010KT 25/19 A2986 RMK A01 T02480187  RH  069%=      5-min Rain = 0
KAM2 242342Z 14009KT 25/19 A2986 RMK A01 T02480185  RH  068%=      5-min Rain = 0
KAM2 242343Z 12009KT 25/19 A2986 RMK A01 T02480188  RH  070%=      5-min Rain = 0
KAM2 242344Z 12011KT 25/19 A2986 RMK A01 T02490189  RH  069%=      5-min Rain = 0
KAM2 242345Z 12010KT 25/19 A2986 RMK A01 T02470190  RH  070%=      5-min Rain = 0
KAM2 242346Z 12009KT 25/19 A2985 RMK A01 T02480187  RH  069%=      5-min Rain = 0
KAM2 242347Z 12008KT 25/19 A2985 RMK A01 T02480190  RH  070%=      5-min Rain = 0
KAM2 242348Z 13009KT 25/19 A2985 RMK A01 T02480191  RH  070%=      5-min Rain = 0
KAM2 242349Z 13008KT 25/19 A2985 RMK A01 T02490192  RH  071%=      5-min Rain = 0
KAM2 242350Z 14009KT 25/19 A2985 RMK A01 T02490193  RH  071%=      5-min Rain = 0
KAM2 242351Z 14009KT 25/19 A2985 RMK A01 T02500191  RH  070%=      5-min Rain = 0
KAM2 242352Z 13008KT 25/19 A2985 RMK A01 T02500189  RH  069%=      5-min Rain = 0
KAM2 242353Z 13010KT 25/19 A2985 RMK A01 T02500189  RH  069%=      5-min Rain = 0
KAM2 242354Z 14010KT 25/19 A2985 RMK A01 T02490189  RH  069%=      5-min Rain = 0
KAM2 242355Z 14009KT 25/19 A2985 RMK A01 T02490187  RH  068%=      5-min Rain = 0
KAM2 242356Z 13010KT 25/18 A2985 RMK A01 T02490184  RH  067%=      5-min Rain = 0
KAM2 242357Z 14009KT 25/19 A2985 RMK A01 T02480185  RH  068%=      5-min Rain = 0
KAM2 242358Z 14010KT 25/18 A2985 RMK A01 T02480184  RH  068%=      5-min Rain = 0
KAM2 242359Z 14012KT 25/18 A2984 RMK A01 T02490184  RH  067%=      5-min Rain = 0
KAM2 250000Z 12010KT 25/19 A2984 RMK A01 T02480185  RH  068%=      5-min Rain = 0
KAM2 250001Z 13012KT 25/18 A2984 RMK A01 T02480183  RH  067%=      5-min Rain = 0
KAM2 250002Z 15011KT 25/19 A2984 RMK A01 T02480186  RH  068%=      5-min Rain = 0
KAM2 250003Z 14009KT 25/19 A2984 RMK A01 T02480186  RH  069%=      5-min Rain = 0
KAM2 250004Z 13011KT 25/19 A2984 RMK A01 T02470186  RH  069%=      5-min Rain = 0
KAM2 250005Z 12012KT 25/18 A2984 RMK A01 T02480183  RH  067%=      5-min Rain = 0
KAM2 250006Z 14011KT 25/18 A2984 RMK A01 T02470184  RH  068%=      5-min Rain = 0
KAM2 250007Z 14009KT 25/19 A2984 RMK A01 T02460186  RH  069%=      5-min Rain = 0
KAM2 250008Z 15009KT 25/19 A2984 RMK A01 T02470185  RH  069%=      5-min Rain = 0
KAM2 250009Z 14011KT 25/19 A2984 RMK A01 T02470185  RH  069%=      5-min Rain = 0
KAM2 250010Z 14013KT 25/18 A2984 RMK A01 T02470184  RH  068%=      5-min Rain = 0
KAM2 250011Z 14011KT 25/19 A2984 RMK A01 T02480187  RH  069%=      5-min Rain = 0
KAM2 250012Z 13012KT 25/19 A2984 RMK A01 T02470186  RH  069%=      5-min Rain = 0
KAM2 250013Z 14011KT 25/19 A2984 RMK A01 T02470188  RH  069%=      5-min Rain = 0
KAM2 250014Z 13009KT 25/19 A2984 RMK A01 T02470190  RH  071%=      5-min Rain = 0
KAM2 250015Z 13014KT 25/19 A2984 RMK A01 T02480187  RH  069%=      5-min Rain = 0
KAM2 250016Z 14013KT 25/19 A2984 RMK A01 T02480186  RH  068%=      5-min Rain = 0
KAM2 250017Z 13012KT 25/19 A2984 RMK A01 T02470188  RH  070%=      5-min Rain = 0
KAM2 250018Z 14011KT 25/19 A2984 RMK A01 T02470188  RH  070%=      5-min Rain = 0
KAM2 250019Z 14013KT 25/19 A2984 RMK A01 T02460189  RH  070%=      5-min Rain = 0
KAM2 250020Z 14016KT 25/19 A2984 RMK A01 T02460186  RH  069%=      5-min Rain = 0
KAM2 250021Z 14014KT 25/19 A2984 RMK A01 T02460186  RH  070%=      5-min Rain = 0
KAM2 250022Z 14014KT 24/19 A2984 RMK A01 T02440189  RH  071%=      5-min Rain = 0
KAM2 250023Z 14011KT 24/19 A2984 RMK A01 T02440192  RH  073%=      5-min Rain = 0
KAM2 250024Z 14009KT 24/19 A2983 RMK A01 T02440194  RH  073%=      5-min Rain = 0
KAM2 250025Z 14010KT 24/19 A2983 RMK A01 T02440193  RH  073%=      5-min Rain = 0
KAM2 250026Z 12011KT 24/19 A2983 RMK A01 T02440194  RH  074%=      5-min Rain = 0
KAM2 250027Z 13012KT 24/19 A2983 RMK A01 T02430193  RH  074%=      5-min Rain = 0
KAM2 250028Z 14010KT 24/19 A2983 RMK A01 T02420193  RH  074%=      5-min Rain = 0
KAM2 250029Z 13011KT 24/19 A2983 RMK A01 T02420192  RH  074%=      5-min Rain = 0
KAM2 250030Z 13010KT 24/19 A2983 RMK A01 T02420192  RH  074%=      5-min Rain = 0
KAM2 250031Z 14010KT 24/19 A2983 RMK A01 T02410193  RH  074%=      5-min Rain = 0
KAM2 250032Z 14012KT 24/19 A2983 RMK A01 T02410191  RH  073%=      5-min Rain = 0
KAM2 250033Z 15008KT 24/19 A2983 RMK A01 T02420192  RH  074%=      5-min Rain = 0
KAM2 250034Z 15010KT 24/19 A2983 RMK A01 T02420193  RH  074%=      5-min Rain = 0
KAM2 250035Z 15011KT 24/19 A2983 RMK A01 T02410189  RH  073%=      5-min Rain = 0
KAM2 250036Z 15011KT 24/19 A2983 RMK A01 T02420191  RH  073%=      5-min Rain = 0
KAM2 250037Z 15012G17KT 24/19 A2983 RMK A01 T02410191  RH  073%=      5-min Rain = 0
KAM2 250038Z 14013KT 24/19 A2983 RMK A01 T02410191  RH  074%=      5-min Rain = 0
KAM2 250039Z 15011KT 24/19 A2983 RMK A01 T02410190  RH  073%=      5-min Rain = 0
KAM2 250040Z 15010KT 24/19 A2983 RMK A01 T02410189  RH  073%=      5-min Rain = 0
KAM2 250041Z 15009KT 24/19 A2983 RMK A01 T02410190  RH  073%=      5-min Rain = 0
KAM2 250042Z 15010KT 24/19 A2983 RMK A01 T02400190  RH  073%=      5-min Rain = 0
KAM2 250043Z 15009KT 24/19 A2983 RMK A01 T02400191  RH  074%=      5-min Rain = 0
KAM2 250044Z 14010KT 24/19 A2983 RMK A01 T02400193  RH  075%=      5-min Rain = 0
KAM2 250045Z 13011KT 24/20 A2983 RMK A01 T02390195  RH  076%=      5-min Rain = 0
KAM2 250046Z 13011KT 24/20 A2983 RMK A01 T02380195  RH  077%=      5-min Rain = 0
KAM2 250047Z 13012KT 24/20 A2983 RMK A01 T02370195  RH  077%=      5-min Rain = 0
KAM2 250048Z 14010KT 24/20 A2983 RMK A01 T02360195  RH  078%=      5-min Rain = 0
KAM2 250049Z 14013KT 24/20 A2983 RMK A01 T02360195  RH  078%=      5-min Rain = 0
KAM2 250050Z 14012KT 24/19 A2983 RMK A01 T02360193  RH  077%=      5-min Rain = 0
KAM2 250051Z 14011G16KT 24/19 A2983 RMK A01 T02350194  RH  078%=      5-min Rain = 0
KAM2 250052Z 14011KT 24/19 A2983 RMK A01 T02350194  RH  078%=      5-min Rain = 0
KAM2 250053Z 14011KT 23/19 A2983 RMK A01 T02340194  RH  078%=      5-min Rain = 0
KAM2 250054Z 15008KT 23/19 A2983 RMK A01 T02340194  RH  079%=      5-min Rain = 0
KAM2 250055Z 15009KT 23/20 A2983 RMK A01 T02330195  RH  079%=      5-min Rain = 0
KAM2 250056Z 15009KT 23/20 A2983 RMK A01 T02330195  RH  079%=      5-min Rain = 0
KAM2 250057Z 15010KT 23/19 A2983 RMK A01 T02330194  RH  079%=      5-min Rain = 0
KAM2 250058Z 15012KT 23/19 A2983 RMK A01 T02330192  RH  078%=      5-min Rain = 0
KAM2 250059Z 15011KT 23/19 A2983 RMK A01 T02330192  RH  078%=      5-min Rain = 0
KAM2 250100Z 15011KT 23/19 A2983 RMK A01 T02320192  RH  078%=      5-min Rain = 0
KAM2 250101Z 15010KT 23/19 A2983 RMK A01 T02320191  RH  078%=      5-min Rain = 0
KAM2 250102Z 15011KT 23/19 A2983 RMK A01 T02320190  RH  077%=      5-min Rain = 0
KAM2 250103Z 14009KT 23/19 A2983 RMK A01 T02320190  RH  078%=      5-min Rain = 0
KAM2 250104Z 14011KT 23/19 A2983 RMK A01 T02310190  RH  078%=      5-min Rain = 0
KAM2 250105Z 15010KT 23/19 A2983 RMK A01 T02310191  RH  078%=      5-min Rain = 0
KAM2 250106Z 15009KT 23/19 A2983 RMK A01 T02310191  RH  078%=      5-min Rain = 0
KAM2 250107Z 15008KT 23/19 A2983 RMK A01 T02310191  RH  078%=      5-min Rain = 0
KAM2 250108Z 15011KT 23/19 A2983 RMK A01 T02310191  RH  078%=      5-min Rain = 0
KAM2 250109Z 15011KT 23/19 A2983 RMK A01 T02310190  RH  078%=      5-min Rain = 0
KAM2 250110Z 15010KT 23/19 A2983 RMK A01 T02310191  RH  078%=      5-min Rain = 0
KAM2 250111Z 15010KT 23/19 A2983 RMK A01 T02300191  RH  078%=      5-min Rain = 0
KAM2 250112Z 15009KT 23/19 A2984 RMK A01 T02300190  RH  078%=      5-min Rain = 0
KAM2 250113Z 15008KT 23/19 A2984 RMK A01 T02300191  RH  079%=      5-min Rain = 0
KAM2 250114Z 14009KT 23/19 A2984 RMK A01 T02300192  RH  079%=      5-min Rain = 0
KAM2 250115Z 15010KT 23/19 A2984 RMK A01 T02290191  RH  079%=      5-min Rain = 0
KAM2 250116Z 15012KT 23/19 A2984 RMK A01 T02290191  RH  079%=      5-min Rain = 0
KAM2 250117Z 15010KT 23/19 A2984 RMK A01 T02290191  RH  079%=      5-min Rain = 0
KAM2 250118Z 15011KT 23/19 A2984 RMK A01 T02290191  RH  079%=      5-min Rain = 0
KAM2 250119Z 15009KT 23/19 A2984 RMK A01 T02280192  RH  080%=      5-min Rain = 0
KAM2 250120Z 15010KT 23/19 A2984 RMK A01 T02280191  RH  080%=      5-min Rain = 0
KAM2 250121Z 15010KT 23/19 A2985 RMK A01 T02270191  RH  080%=      5-min Rain = 0
KAM2 250122Z 15008KT 23/19 A2985 RMK A01 T02270191  RH  080%=      5-min Rain = 0
KAM2 250123Z 15008KT 23/19 A2985 RMK A01 T02270192  RH  081%=      5-min Rain = 0
KAM2 250124Z 15008KT 23/19 A2985 RMK A01 T02260192  RH  081%=      5-min Rain = 0
KAM2 250125Z 15008KT 23/19 A2985 RMK A01 T02260192  RH  081%=      5-min Rain = 0
KAM2 250126Z 15007KT 23/19 A2985 RMK A01 T02250192  RH  082%=      5-min Rain = 0
KAM2 250127Z 15010KT 23/19 A2985 RMK A01 T02250192  RH  082%=      5-min Rain = 0
KAM2 250128Z 15008KT 22/19 A2985 RMK A01 T02240192  RH  082%=      5-min Rain = 0
KAM2 250129Z 16009KT 22/19 A2985 RMK A01 T02240192  RH  082%=      5-min Rain = 0
KAM2 250130Z 15011KT 22/19 A2985 RMK A01 T02230191  RH  082%=      5-min Rain = 0
KAM2 250131Z 15012KT 22/19 A2985 RMK A01 T02230191  RH  082%=      5-min Rain = 0
KAM2 250132Z 16011KT 22/19 A2985 RMK A01 T02230191  RH  082%=      5-min Rain = 0
KAM2 250133Z 16010KT 22/19 A2985 RMK A01 T02230191  RH  082%=      5-min Rain = 0
KAM2 250134Z 15010KT 22/19 A2985 RMK A01 T02220191  RH  083%=      5-min Rain = 0
KAM2 250135Z 16011KT 22/19 A2985 RMK A01 T02210191  RH  083%=      5-min Rain = 0
KAM2 250136Z 16012KT 22/19 A2986 RMK A01 T02210191  RH  083%=      5-min Rain = 0
KAM2 250137Z 15013KT 22/19 A2986 RMK A01 T02200191  RH  083%=      5-min Rain = 0
KAM2 250138Z 15013KT 22/19 A2986 RMK A01 T02200191  RH  083%=      5-min Rain = 0
KAM2 250139Z 16012KT 22/19 A2986 RMK A01 T02200191  RH  083%=      5-min Rain = 0
KAM2 250140Z 16012KT 22/19 A2986 RMK A01 T02200190  RH  083%=      5-min Rain = 0
KAM2 250141Z 15011KT 22/19 A2986 RMK A01 T02200191  RH  084%=      5-min Rain = 0
KAM2 250142Z 16010KT 22/19 A2986 RMK A01 T02190191  RH  084%=      5-min Rain = 0
KAM2 250143Z 16012KT 22/19 A2986 RMK A01 T02180191  RH  084%=      5-min Rain = 0
KAM2 250144Z 16010KT 22/19 A2986 RMK A01 T02180191  RH  084%=      5-min Rain = 0
KAM2 250145Z 17011KT 22/19 A2986 RMK A01 T02180191  RH  085%=      5-min Rain = 0
KAM2 250146Z 17010KT 22/19 A2986 RMK A01 T02170191  RH  085%=      5-min Rain = 0
KAM2 250147Z 17010KT 22/19 A2986 RMK A01 T02160191  RH  086%=      5-min Rain = 0
KAM2 250148Z 17011KT 22/19 A2986 RMK A01 T02160191  RH  086%=      5-min Rain = 0
KAM2 250149Z 17013KT 22/19 A2986 RMK A01 T02150191  RH  086%=      5-min Rain = 0
KAM2 250150Z 16014KT 21/19 A2986 RMK A01 T02140190  RH  086%=      5-min Rain = 0
KAM2 250151Z 16013KT 21/19 A2986 RMK A01 T02140189  RH  086%=      5-min Rain = 0
KAM2 250152Z 16013KT 21/19 A2986 RMK A01 T02130189  RH  086%=      5-min Rain = 0
KAM2 250153Z 16014KT 21/19 A2986 RMK A01 T02130188  RH  085%=      5-min Rain = 0
KAM2 250154Z 16015KT 21/19 A2987 RMK A01 T02130186  RH  085%=      5-min Rain = 0
KAM2 250155Z 16013KT 21/19 A2987 RMK A01 T02130186  RH  085%=      5-min Rain = 0
KAM2 250156Z 16014KT 21/19 A2987 RMK A01 T02120186  RH  085%=      5-min Rain = 0
KAM2 250157Z 16013KT 21/19 A2987 RMK A01 T02120186  RH  085%=      5-min Rain = 0
KAM2 250158Z 16012KT 21/19 A2987 RMK A01 T02110186  RH  085%=      5-min Rain = 0
KAM2 250159Z 16013KT 21/19 A2987 RMK A01 T02110186  RH  086%=      5-min Rain = 0
KAM2 250200Z 16016KT 21/19 A2987 RMK A01 T02100186  RH  086%=      5-min Rain = 0
KAM2 250201Z 16015KT 21/19 A2987 RMK A01 T02100186  RH  086%=      5-min Rain = 0
KAM2 250202Z 16014KT 21/19 A2987 RMK A01 T02100187  RH  087%=      5-min Rain = 0
KAM2 250203Z 17015KT 21/19 A2987 RMK A01 T02090186  RH  087%=      5-min Rain = 0
KAM2 250204Z 17014G20KT 21/19 A2987 RMK A01 T02080186  RH  087%=      5-min Rain = 0
KAM2 250205Z 17016KT 21/19 A2987 RMK A01 T02080186  RH  087%=      5-min Rain = 0
KAM2 250206Z 17015KT 21/19 A2987 RMK A01 T02070185  RH  087%=      5-min Rain = 0
KAM2 250207Z 17014KT 21/19 A2987 RMK A01 T02070185  RH  087%=      5-min Rain = 0
KAM2 250208Z 16013KT 21/19 A2987 RMK A01 T02060185  RH  088%=      5-min Rain = 0
KAM2 250209Z 16018KT 20/18 A2988 RMK A01 T02040184  RH  088%=      5-min Rain = 0
KAM2 250210Z 16015KT 20/18 A2988 RMK A01 T02030182  RH  088%=      5-min Rain = 0
KAM2 250211Z 16014KT 20/18 A2988 RMK A01 T02030183  RH  088%=      5-min Rain = 0
KAM2 250212Z 15015KT 20/18 A2988 RMK A01 T02020182  RH  089%=      5-min Rain = 0
KAM2 250213Z 15014KT 20/18 A2988 RMK A01 T02010182  RH  089%=      5-min Rain = 0
KAM2 250214Z 15012KT 20/18 A2988 RMK A01 T02010182  RH  089%=      5-min Rain = 0
KAM2 250215Z 15012KT 20/18 A2988 RMK A01 T01990182  RH  089%=      5-min Rain = 0
KAM2 250216Z 15013KT 20/18 A2988 RMK A01 T01990181  RH  090%=      5-min Rain = 0
KAM2 250217Z 15014KT 20/18 A2988 RMK A01 T01980181  RH  090%=      5-min Rain = 0
KAM2 250218Z 15013KT 20/18 A2988 RMK A01 T01980181  RH  090%=      5-min Rain = 0
KAM2 250219Z 15010KT 20/18 A2988 RMK A01 T01970181  RH  090%=      5-min Rain = 0
KAM2 250220Z 15010KT 20/18 A2988 RMK A01 T01960180  RH  091%=      5-min Rain = 0
KAM2 250221Z 15013KT 20/18 A2988 RMK A01 T01960181  RH  091%=      5-min Rain = 0
KAM2 250222Z 15012KT 20/18 A2989 RMK A01 T01960180  RH  091%=      5-min Rain = 0
KAM2 250223Z 15014KT 20/18 A2989 RMK A01 T01950180  RH  091%=      5-min Rain = 0
KAM2 250224Z 15014KT 20/18 A2989 RMK A01 T01950180  RH  091%=      5-min Rain = 0
KAM2 250225Z 15011KT 20/18 A2989 RMK A01 T01950180  RH  091%=      5-min Rain = 0
KAM2 250226Z 15010KT 20/18 A2988 RMK A01 T01950179  RH  091%=      5-min Rain = 0
KAM2 250227Z 15013KT 20/18 A2988 RMK A01 T01950179  RH  091%=      5-min Rain = 0
KAM2 250228Z 15014KT 20/18 A2988 RMK A01 T01950179  RH  091%=      5-min Rain = 0
KAM2 250229Z 15012KT 20/18 A2988 RMK A01 T01950179  RH  090%=      5-min Rain = 0
KAM2 250230Z 16010KT 20/18 A2988 RMK A01 T01950179  RH  090%=      5-min Rain = 0
KAM2 250231Z 16012KT 19/18 A2988 RMK A01 T01940178  RH  090%=      5-min Rain = 0
KAM2 250232Z 16012KT 19/18 A2988 RMK A01 T01940178  RH  090%=      5-min Rain = 0
KAM2 250233Z 16010KT 19/18 A2988 RMK A01 T01940178  RH  090%=      5-min Rain = 0
KAM2 250234Z 16011KT 19/18 A2988 RMK A01 T01940178  RH  091%=      5-min Rain = 0
KAM2 250235Z 16011KT 19/18 A2988 RMK A01 T01930178  RH  091%=      5-min Rain = 0
KAM2 250236Z 16011KT 19/18 A2988 RMK A01 T01930178  RH  091%=      5-min Rain = 0
KAM2 250237Z 16010KT 19/18 A2988 RMK A01 T01930178  RH  091%=      5-min Rain = 0
KAM2 250238Z 16010G15KT 19/18 A2988 RMK A01 T01930177  RH  091%=      5-min Rain = 0
KAM2 250239Z 17011KT 19/18 A2988 RMK A01 T01930177  RH  090%=      5-min Rain = 0
KAM2 250240Z 16011KT 19/18 A2988 RMK A01 T01930177  RH  090%=      5-min Rain = 0
KAM2 250241Z 16013KT 19/18 A2988 RMK A01 T01930176  RH  090%=      5-min Rain = 0
KAM2 250242Z 16014KT 19/18 A2987 RMK A01 T01930176  RH  090%=      5-min Rain = 0
KAM2 250243Z 16015KT 19/18 A2987 RMK A01 T01940176  RH  089%=      5-min Rain = 0
KAM2 250244Z 16012KT 19/18 A2987 RMK A01 T01940176  RH  089%=      5-min Rain = 0
KAM2 250245Z 16012KT 20/18 A2987 RMK A01 T01950176  RH  089%=      5-min Rain = 0
KAM2 250246Z 16013KT 19/18 A2987 RMK A01 T01940175  RH  089%=      5-min Rain = 0
KAM2 250247Z 16012KT 19/18 A2988 RMK A01 T01930175  RH  089%=      5-min Rain = 0
KAM2 250248Z 16012KT 19/18 A2988 RMK A01 T01930175  RH  090%=      5-min Rain = 0
KAM2 250249Z 16011KT 19/18 A2988 RMK A01 T01930175  RH  090%=      5-min Rain = 0
KAM2 250250Z 16011KT 19/18 A2988 RMK A01 T01920175  RH  090%=      5-min Rain = 0
KAM2 250251Z 17012KT 19/18 A2988 RMK A01 T01920175  RH  090%=      5-min Rain = 0
KAM2 250252Z 17013KT 19/18 A2988 RMK A01 T01920175  RH  090%=      5-min Rain = 0
KAM2 250253Z 17012KT 19/18 A2988 RMK A01 T01920175  RH  090%=      5-min Rain = 0
KAM2 250254Z 16013KT 19/17 A2988 RMK A01 T01910174  RH  090%=      5-min Rain = 0
KAM2 250255Z 17012KT 19/17 A2987 RMK A01 T01920174  RH  090%=      5-min Rain = 0
KAM2 250256Z 16014KT 19/17 A2987 RMK A01 T01910173  RH  089%=      5-min Rain = 0
KAM2 250257Z 16012G17KT 19/17 A2987 RMK A01 T01910172  RH  088%=      5-min Rain = 0
KAM2 250258Z 17012KT 19/17 A2987 RMK A01 T01910171  RH  088%=      5-min Rain = 0
KAM2 250259Z 17013KT 19/17 A2987 RMK A01 T01910170  RH  088%=      5-min Rain = 0
KAM2 250300Z 17014KT 19/17 A2987 RMK A01 T01910168  RH  087%=      5-min Rain = 0
KAM2 250301Z 17013KT 19/17 A2987 RMK A01 T01900166  RH  086%=      5-min Rain = 0
KAM2 250302Z 17012KT 19/17 A2987 RMK A01 T01900165  RH  085%=      5-min Rain = 0
KAM2 250303Z 17012KT 19/17 A2987 RMK A01 T01890165  RH  086%=      5-min Rain = 0
KAM2 250304Z 17012KT 19/16 A2987 RMK A01 T01890164  RH  086%=      5-min Rain = 0
KAM2 250305Z 17011KT 19/16 A2987 RMK A01 T01890163  RH  085%=      5-min Rain = 0
KAM2 250306Z 16011KT 19/16 A2987 RMK A01 T01880162  RH  085%=      5-min Rain = 0
KAM2 250307Z 16011KT 19/16 A2987 RMK A01 T01870161  RH  084%=      5-min Rain = 0
KAM2 250308Z 16012KT 19/16 A2987 RMK A01 T01870159  RH  084%=      5-min Rain = 0
KAM2 250309Z 16012KT 19/16 A2988 RMK A01 T01860158  RH  083%=      5-min Rain = 0
KAM2 250310Z 16011KT 19/16 A2987 RMK A01 T01860156  RH  083%=      5-min Rain = 0
KAM2 250311Z 16011KT 19/16 A2987 RMK A01 T01850156  RH  083%=      5-min Rain = 0
KAM2 250312Z 16011KT 18/16 A2987 RMK A01 T01840155  RH  083%=      5-min Rain = 0
KAM2 250313Z 16011KT 18/15 A2987 RMK A01 T01840154  RH  083%=      5-min Rain = 0
KAM2 250314Z 16010KT 18/15 A2987 RMK A01 T01830154  RH  083%=      5-min Rain = 0
KAM2 250315Z 17011KT 18/15 A2987 RMK A01 T01830153  RH  083%=      5-min Rain = 0
KAM2 250316Z 17011KT 18/15 A2987 RMK A01 T01830153  RH  083%=      5-min Rain = 0
KAM2 250317Z 17011KT 18/15 A2987 RMK A01 T01820153  RH  083%=      5-min Rain = 0
KAM2 250318Z 17014KT 18/15 A2987 RMK A01 T01820152  RH  083%=      5-min Rain = 0
KAM2 250319Z 17013KT 18/15 A2987 RMK A01 T01820151  RH  082%=      5-min Rain = 0
KAM2 250320Z 17012KT 18/15 A2987 RMK A01 T01820151  RH  082%=      5-min Rain = 0
KAM2 250321Z 17012KT 18/15 A2987 RMK A01 T01820151  RH  082%=      5-min Rain = 0
KAM2 250322Z 17011KT 18/15 A2987 RMK A01 T01820151  RH  082%=      5-min Rain = 0
KAM2 250323Z 17014KT 18/15 A2988 RMK A01 T01820151  RH  082%=      5-min Rain = 0
KAM2 250324Z 17013KT 18/15 A2988 RMK A01 T01810151  RH  082%=      5-min Rain = 0
KAM2 250325Z 17013KT 18/15 A2988 RMK A01 T01810151  RH  082%=      5-min Rain = 0
KAM2 250326Z 17014KT 18/15 A2988 RMK A01 T01810151  RH  082%=      5-min Rain = 0
KAM2 250327Z 17014KT 18/15 A2989 RMK A01 T01810151  RH  082%=      5-min Rain = 0
KAM2 250328Z 17013KT 18/15 A2989 RMK A01 T01810150  RH  082%=      5-min Rain = 0
KAM2 250329Z 17012KT 18/15 A2989 RMK A01 T01810150  RH  082%=      5-min Rain = 0
KAM2 250330Z 17014KT 18/15 A2989 RMK A01 T01810150  RH  082%=      5-min Rain = 0
KAM2 250331Z 17015KT 18/15 A2989 RMK A01 T01810149  RH  081%=      5-min Rain = 0
KAM2 250332Z 18016KT 18/15 A2989 RMK A01 T01820149  RH  081%=      5-min Rain = 0
KAM2 250333Z 18016KT 18/15 A2989 RMK A01 T01820148  RH  081%=      5-min Rain = 0
KAM2 250334Z 17014KT 18/15 A2989 RMK A01 T01830148  RH  080%=      5-min Rain = 0
KAM2 250335Z 18014KT 18/15 A2989 RMK A01 T01830149  RH  081%=      5-min Rain = 0
KAM2 250336Z 18015G20KT 18/15 A2989 RMK A01 T01820148  RH  080%=      5-min Rain = 0
KAM2 250337Z 18013KT 18/15 A2989 RMK A01 T01830148  RH  080%=      5-min Rain = 0
KAM2 250338Z 18015KT 18/15 A2989 RMK A01 T01830147  RH  079%=      5-min Rain = 0
KAM2 250339Z 18015KT 18/15 A299 RMK A01 T01840147  RH  079%=      5-min Rain = 0
KAM2 250340Z 18014KT 18/15 A299 RMK A01 T01840147  RH  079%=      5-min Rain = 0
KAM2 250341Z 18014KT 18/15 A299 RMK A01 T01840148  RH  080%=      5-min Rain = 0
KAM2 250342Z 18015KT 18/15 A299 RMK A01 T01830148  RH  080%=      5-min Rain = 0
KAM2 250343Z 18015KT 18/15 A299 RMK A01 T01830148  RH  080%=      5-min Rain = 0
KAM2 250344Z 18017KT 18/15 A299 RMK A01 T01830147  RH  080%=      5-min Rain = 0
KAM2 250345Z 18017KT 18/15 A2991 RMK A01 T01830147  RH  079%=      5-min Rain = 0
KAM2 250346Z 18016KT 18/15 A2991 RMK A01 T01830147  RH  079%=      5-min Rain = 0
KAM2 250347Z 18015KT 18/15 A2991 RMK A01 T01840148  RH  079%=      5-min Rain = 0
KAM2 250348Z 17015KT 18/15 A2991 RMK A01 T01840148  RH  080%=      5-min Rain = 0
KAM2 250349Z 18014KT 18/15 A2991 RMK A01 T01830148  RH  080%=      5-min Rain = 0
KAM2 250350Z 17013KT 18/15 A2991 RMK A01 T01830148  RH  080%=      5-min Rain = 0
KAM2 250351Z 17014KT 18/15 A2991 RMK A01 T01830148  RH  080%=      5-min Rain = 0
KAM2 250352Z 17014KT 18/15 A2991 RMK A01 T01830148  RH  080%=      5-min Rain = 0
KAM2 250353Z 17014KT 18/15 A2991 RMK A01 T01820148  RH  080%=      5-min Rain = 0
KAM2 250354Z 17013KT 18/15 A2991 RMK A01 T01820148  RH  080%=      5-min Rain = 0
KAM2 250355Z 17014KT 18/15 A2991 RMK A01 T01820148  RH  081%=      5-min Rain = 0
KAM2 250356Z 17015KT 18/15 A2991 RMK A01 T01820148  RH  081%=      5-min Rain = 0
KAM2 250357Z 18013KT 18/15 A2991 RMK A01 T01820148  RH  081%=      5-min Rain = 0
KAM2 250358Z 17014KT 18/15 A2991 RMK A01 T01810148  RH  081%=      5-min Rain = 0
KAM2 250359Z 17012KT 18/15 A2991 RMK A01 T01810147  RH  081%=      5-min Rain = 0
KAM2 250400Z 17013KT 18/15 A2991 RMK A01 T01810148  RH  081%=      5-min Rain = 0
KAM2 250401Z 17011KT 18/15 A2991 RMK A01 T01810148  RH  081%=      5-min Rain = 0
KAM2 250402Z 17011KT 18/15 A2991 RMK A01 T01800148  RH  082%=      5-min Rain = 0
KAM2 250403Z 17011KT 18/15 A2991 RMK A01 T01790148  RH  082%=      5-min Rain = 0
KAM2 250404Z 17013KT 18/15 A2991 RMK A01 T01790148  RH  082%=      5-min Rain = 0
KAM2 250405Z 17013KT 18/15 A2991 RMK A01 T01790148  RH  082%=      5-min Rain = 0
KAM2 250406Z 17013KT 18/15 A2991 RMK A01 T01790147  RH  082%=      5-min Rain = 0
KAM2 250407Z 18013KT 18/15 A2991 RMK A01 T01790148  RH  082%=      5-min Rain = 0
KAM2 250408Z 18013KT 18/15 A2991 RMK A01 T01790148  RH  082%=      5-min Rain = 0
KAM2 250409Z 18012KT 18/15 A2991 RMK A01 T01790148  RH  082%=      5-min Rain = 0
KAM2 250410Z 18011KT 18/15 A2991 RMK A01 T01790148  RH  082%=      5-min Rain = 0
KAM2 250411Z 18013KT 18/15 A2991 RMK A01 T01780148  RH  082%=      5-min Rain = 0
KAM2 250412Z 18012KT 18/15 A2991 RMK A01 T01780147  RH  083%=      5-min Rain = 0
KAM2 250413Z 18013KT 18/15 A2991 RMK A01 T01780148  RH  083%=      5-min Rain = 0
KAM2 250414Z 18012KT 18/15 A2991 RMK A01 T01780148  RH  083%=      5-min Rain = 0
KAM2 250415Z 18013KT 18/15 A2991 RMK A01 T01770147  RH  083%=      5-min Rain = 0
KAM2 250416Z 18012KT 18/15 A2991 RMK A01 T01770147  RH  083%=      5-min Rain = 0
KAM2 250417Z 17012KT 18/15 A2991 RMK A01 T01770148  RH  083%=      5-min Rain = 0
KAM2 250418Z 18012KT 18/15 A2991 RMK A01 T01770148  RH  083%=      5-min Rain = 0
KAM2 250419Z 18010KT 18/15 A2991 RMK A01 T01780148  RH  083%=      5-min Rain = 0
KAM2 250420Z 18013KT 18/15 A2991 RMK A01 T01770148  RH  083%=      5-min Rain = 0
KAM2 250421Z 18011KT 18/15 A2991 RMK A01 T01760147  RH  083%=      5-min Rain = 0
KAM2 250422Z 18012KT 18/15 A2991 RMK A01 T01760147  RH  083%=      5-min Rain = 0
KAM2 250423Z 18012KT 18/15 A2991 RMK A01 T01770147  RH  083%=      5-min Rain = 0
KAM2 250424Z 18012KT 18/15 A2991 RMK A01 T01760147  RH  083%=      5-min Rain = 0
KAM2 250425Z 17011KT 18/15 A2991 RMK A01 T01770147  RH  083%=      5-min Rain = 0
KAM2 250426Z 18012KT 18/15 A2991 RMK A01 T01760147  RH  083%=      5-min Rain = 0
KAM2 250427Z 18011KT 18/15 A2991 RMK A01 T01760147  RH  083%=      5-min Rain = 0
KAM2 250428Z 18012KT 18/15 A2991 RMK A01 T01760147  RH  083%=      5-min Rain = 0
KAM2 250429Z 18012KT 18/15 A2991 RMK A01 T01760147  RH  083%=      5-min Rain = 0
KAM2 250430Z 18011KT 18/15 A2991 RMK A01 T01760147  RH  083%=      5-min Rain = 0
KAM2 250431Z 18010KT 18/15 A2991 RMK A01 T01750146  RH  083%=      5-min Rain = 0
KAM2 250432Z 18010KT 18/15 A2992 RMK A01 T01750147  RH  083%=      5-min Rain = 0
KAM2 250433Z 18011KT 18/15 A2992 RMK A01 T01750147  RH  083%=      5-min Rain = 0
KAM2 250434Z 17011KT 18/15 A2992 RMK A01 T01750147  RH  083%=      5-min Rain = 0
KAM2 250435Z 18011KT 18/15 A2992 RMK A01 T01750147  RH  083%=      5-min Rain = 0
KAM2 250436Z 17011KT 18/15 A2992 RMK A01 T01750146  RH  083%=      5-min Rain = 0
KAM2 250437Z 17012KT 17/15 A2992 RMK A01 T01740146  RH  083%=      5-min Rain = 0
KAM2 250438Z 17011KT 18/15 A2992 RMK A01 T01750146  RH  083%=      5-min Rain = 0
KAM2 250439Z 17011KT 17/15 A2992 RMK A01 T01740146  RH  083%=      5-min Rain = 0
KAM2 250440Z 18011KT 18/15 A2992 RMK A01 T01750146  RH  083%=      5-min Rain = 0
KAM2 250441Z 18012KT 17/15 A2992 RMK A01 T01740146  RH  083%=      5-min Rain = 0
KAM2 250442Z 17011KT 18/15 A2992 RMK A01 T01750146  RH  083%=      5-min Rain = 0
KAM2 250443Z 17012KT 18/15 A2992 RMK A01 T01750146  RH  083%=      5-min Rain = 0
KAM2 250444Z 17011KT 17/15 A2993 RMK A01 T01740146  RH  083%=      5-min Rain = 0
KAM2 250445Z 16011KT 18/15 A2993 RMK A01 T01750146  RH  083%=      5-min Rain = 0
KAM2 250446Z 16012KT 17/15 A2993 RMK A01 T01740147  RH  084%=      5-min Rain = 0
KAM2 250447Z 16012KT 17/15 A2993 RMK A01 T01740147  RH  084%=      5-min Rain = 0
KAM2 250448Z 17012KT 17/15 A2993 RMK A01 T01740147  RH  084%=      5-min Rain = 0
KAM2 250449Z 17013KT 17/15 A2993 RMK A01 T01740147  RH  084%=      5-min Rain = 0
KAM2 250450Z 17014KT 17/15 A2993 RMK A01 T01740147  RH  084%=      5-min Rain = 0
KAM2 250451Z 17014KT 18/15 A2993 RMK A01 T01750146  RH  083%=      5-min Rain = 0
KAM2 250452Z 18013KT 18/15 A2993 RMK A01 T01760147  RH  083%=      5-min Rain = 0
KAM2 250453Z 18014KT 18/15 A2993 RMK A01 T01760146  RH  083%=      5-min Rain = 0
KAM2 250454Z 18014KT 18/15 A2993 RMK A01 T01760146  RH  083%=      5-min Rain = 0
KAM2 250455Z 17013KT 18/15 A2993 RMK A01 T01770146  RH  082%=      5-min Rain = 0
KAM2 250456Z 18012KT 18/15 A2993 RMK A01 T01760146  RH  082%=      5-min Rain = 0
KAM2 250457Z 17013KT 18/15 A2993 RMK A01 T01760146  RH  083%=      5-min Rain = 0
KAM2 250458Z 17013KT 18/15 A2993 RMK A01 T01760147  RH  083%=      5-min Rain = 0
KAM2 250459Z 17013KT 18/15 A2993 RMK A01 T01760146  RH  082%=      5-min Rain = 0

Page generated in 0.1315 seconds.